Darstellungsparameter: Aktuell verwendete Einstellungen:
Skalierung der Graphiken ... ?
xyx+y,   Skalierungsfaktor:      Skalierung: Modus: x, Faktor: 1
Darstellungszeitraum ... ?
Vom - - bis: - -   Zeitraum: 16.03.2003 - 23.03.2003
Min/Max/Avg-Anzeige ... ?
Zeige MMA aktuell
Zeige MMA Monat
Zeige MMA alles
Zeige --A aktuell
Zeige --A Monat
Zeige --A alles
Keine MMA-Anzeige
MMA:
Average (ber die Originaldaten)
MMA-Basis: 16.03.2003 - 23.03.2003
Quicknavigation für Darstellung... ?
Tage:      1T, 2T, 3T, 5T -1T -2T -3T -5T +1T +2T +3T +5T
Wochen: 1W, 2W, 3W -1W -2W -3W +1W +2W +3W
Monate: 1M, 3M, 6M -1M -3M -6M +1M +3M +6M
Jahre:    1J, 3J, 5J, 10J -1J -3J -5J -10J +1J +3J +5J +10J
Nutze für die Darstellung ... ?
Originaldaten oder Mittelwerte auf ...
Stundenbasis Tagesbasis Wochenbasis
Monatsbasis Jahresbasis      Datenbasis: Original-Daten
Darstellen als:
Statistik (Auto) Statistik J:M      Darstellung:
Zur Graphik,    zurück zur Übersicht aller Sensoren.
 
Tabellarische Datenbersicht: ?
 
Sensor: Nr:Datum:Temp:Abs-Feuchte:Windchill:Wind:
Aussen-T/F 1 16-03-2003 00:06:12 2 C 3.61 g/m*3 2 C 0 km/h
2 16-03-2003 00:18:12 1.9 C 3.64 g/m*3 1.9 C 0 km/h
3 16-03-2003 00:30:12 1.8 C 3.62 g/m*3 1.8 C 0 km/h
4 16-03-2003 00:42:12 2 C 3.61 g/m*3 2 C 0 km/h
5 16-03-2003 00:54:12 2 C 3.61 g/m*3 2 C 0 km/h
6 16-03-2003 01:06:12 1.7 C 3.65 g/m*3 1.7 C 0 km/h
7 16-03-2003 01:18:12 1.5 C 3.6 g/m*3 1.5 C 0 km/h
8 16-03-2003 01:30:12 1.1 C 3.61 g/m*3 1.1 C 0 km/h
9 16-03-2003 01:42:12 0.9 C 3.66 g/m*3 0.9 C 0 km/h
10 16-03-2003 01:54:12 0.6 C 3.64 g/m*3 0.6 C 0 km/h
11 16-03-2003 02:06:12 0.3 C 3.56 g/m*3 0.3 C 0 km/h
12 16-03-2003 02:18:12 0.2 C 3.64 g/m*3 0.2 C 0 km/h
13 16-03-2003 02:30:12 0.1 C 3.61 g/m*3 0.1 C 0 km/h
14 16-03-2003 02:42:12 -0.2 C 3.54 g/m*3 -0.2 C 0 km/h
15 16-03-2003 02:54:12 -0.3 C 3.56 g/m*3 -0.3 C 0 km/h
16 16-03-2003 03:06:12 -0.5 C 3.51 g/m*3 -0.5 C 0 km/h
17 16-03-2003 03:18:12 -0.4 C 3.53 g/m*3 -0.4 C 0 km/h
18 16-03-2003 03:30:12 -0.5 C 3.51 g/m*3 -0.5 C 0 km/h
19 16-03-2003 03:42:12 -0.7 C 3.51 g/m*3 -0.7 C 0 km/h
20 16-03-2003 03:54:12 -0.9 C 3.46 g/m*3 -0.9 C 0 km/h
21 16-03-2003 04:06:12 -1.1 C 3.46 g/m*3 -1.1 C 0 km/h
22 16-03-2003 04:18:12 -1.4 C 3.39 g/m*3 -1.4 C 0 km/h
23 16-03-2003 04:30:12 -1.5 C 3.32 g/m*3 -1.5 C 0 km/h
24 16-03-2003 04:42:12 -1.5 C 3.36 g/m*3 -1.5 C 0 km/h
25 16-03-2003 04:54:12 -1.6 C 3.34 g/m*3 -1.6 C 0 km/h
Sensor: Nr:Datum:Temp:Abs-Feuchte:Windchill:Wind:
Aussen-T/F 26 16-03-2003 05:06:12 -1.6 C 3.38 g/m*3 -1.6 C 0 km/h
27 16-03-2003 05:18:12 -1.7 C 3.4 g/m*3 -1.7 C 0 km/h
28 16-03-2003 05:30:12 -1.9 C 3.31 g/m*3 -1.9 C 0 km/h
29 16-03-2003 05:42:12 -1.9 C 3.35 g/m*3 -1.9 C 0 km/h
30 16-03-2003 05:54:12 -2 C 3.37 g/m*3 -2 C 0 km/h
31 16-03-2003 06:06:12 -1.9 C 3.4 g/m*3 -1.9 C 0 km/h
32 16-03-2003 06:18:12 -2 C 3.37 g/m*3 -2 C 0 km/h
33 16-03-2003 06:30:12 -1.9 C 3.44 g/m*3 -1.9 C 0 km/h
34 16-03-2003 06:42:12 -2 C 3.41 g/m*3 -2 C 0 km/h
35 16-03-2003 06:54:12 -2.1 C 3.39 g/m*3 -2.1 C 0 km/h
36 16-03-2003 07:06:12 -2.1 C 3.39 g/m*3 -2.1 C 0 km/h
37 16-03-2003 07:18:12 -2.1 C 3.39 g/m*3 -2.1 C 0 km/h
38 16-03-2003 07:30:12 -2 C 3.46 g/m*3 -2 C 0 km/h
39 16-03-2003 07:42:12 -2.1 C 3.39 g/m*3 -2.1 C 0 km/h
40 16-03-2003 07:54:12 -1.9 C 3.48 g/m*3 -1.9 C 0 km/h
41 16-03-2003 08:06:12 -1.9 C 3.48 g/m*3 -1.9 C 0 km/h
42 16-03-2003 08:18:12 -1.7 C 3.53 g/m*3 -1.7 C 0 km/h
43 16-03-2003 08:30:12 -1.5 C 3.58 g/m*3 -1.5 C 0 km/h
44 16-03-2003 08:42:12 -1.4 C 3.6 g/m*3 -1.4 C 0 km/h
45 16-03-2003 08:54:12 -1.1 C 3.68 g/m*3 -1.1 C 0 km/h
46 16-03-2003 09:06:12 -0.8 C 3.71 g/m*3 -0.8 C 0 km/h
47 16-03-2003 09:18:12 0.1 C 3.9 g/m*3 0.1 C 0 km/h
48 16-03-2003 09:30:12 0.8 C 3.94 g/m*3 0.8 C 0 km/h
49 16-03-2003 09:42:12 1.8 C 4.11 g/m*3 1.8 C 0 km/h
50 16-03-2003 09:54:12 2.7 C 4.08 g/m*3 2.7 C 0 km/h
Sensor: Nr:Datum:Temp:Abs-Feuchte:Windchill:Wind:
Aussen-T/F 51 16-03-2003 10:06:14 3.4 C 4.03 g/m*3 3.4 C 0 km/h
52 16-03-2003 10:18:14 4.3 C 4.15 g/m*3 4.3 C 0 km/h
53 16-03-2003 10:30:14 4.9 C 4.12 g/m*3 4.9 C 0 km/h
54 16-03-2003 10:42:14 5.7 C 3.91 g/m*3 5.7 C 0 km/h
55 16-03-2003 10:54:14 6.5 C 3.75 g/m*3 6.5 C 0 km/h
56 16-03-2003 11:06:13 7.2 C 3.69 g/m*3 7.2 C 0 km/h
57 16-03-2003 11:18:13 7.8 C 3.51 g/m*3 7.8 C 0 km/h
58 16-03-2003 11:30:13 8.2 C 3.43 g/m*3 8.2 C 0 km/h
59 16-03-2003 11:42:13 8.8 C 3.57 g/m*3 8.8 C 0 km/h
60 16-03-2003 11:54:13 9.2 C 3.39 g/m*3 9.2 C 0 km/h
61 16-03-2003 12:06:13 9.8 C 3.34 g/m*3 9.8 C 0 km/h
62 16-03-2003 12:18:13 10.7 C 3.44 g/m*3 10.7 C 0 km/h
63 16-03-2003 12:30:13 11.2 C 3.34 g/m*3 11.2 C 0 km/h
64 16-03-2003 12:42:13 11 C 3.1 g/m*3 11 C 0 km/h
65 16-03-2003 12:54:13 11.7 C 3.35 g/m*3 11.7 C 0 km/h
66 16-03-2003 13:06:13 11.8 C 3.47 g/m*3 11.8 C 0 km/h
67 16-03-2003 13:18:13 12 C 3.52 g/m*3 12 C 0 km/h
68 16-03-2003 13:30:13 12 C 3.41 g/m*3 12 C 0 km/h
69 16-03-2003 13:42:13 12.5 C 3.63 g/m*3 12.5 C 0 km/h
70 16-03-2003 13:54:13 13 C 3.52 g/m*3 13 C 0 km/h
71 16-03-2003 14:06:13 13.4 C 3.49 g/m*3 13.4 C 0 km/h
72 16-03-2003 14:18:13 13.9 C 3.48 g/m*3 13.9 C 0 km/h
73 16-03-2003 14:30:13 14.2 C 3.42 g/m*3 14.2 C 0 km/h
74 16-03-2003 14:42:13 14.4 C 3.46 g/m*3 14.4 C 0 km/h
75 16-03-2003 14:54:13 14.8 C 3.42 g/m*3 14.8 C 0 km/h
Sensor: Nr:Datum:Temp:Abs-Feuchte:Windchill:Wind:
Aussen-T/F 76 16-03-2003 15:06:14 15.2 C 3.24 g/m*3 15.2 C 0 km/h
77 16-03-2003 15:18:14 15.9 C 3.39 g/m*3 15.9 C 0 km/h
78 16-03-2003 15:30:14 16 C 3.41 g/m*3 16 C 0 km/h
79 16-03-2003 15:42:14 16 C 3.27 g/m*3 16 C 0 km/h
80 16-03-2003 15:54:14 16.4 C 3.49 g/m*3 16.4 C 0 km/h
81 16-03-2003 16:06:13 16.2 C 3.03 g/m*3 16.2 C 0 km/h
82 16-03-2003 16:18:13 16.4 C 3.35 g/m*3 16.4 C 0 km/h
83 16-03-2003 16:30:13 16.5 C 3.23 g/m*3 16.5 C 0 km/h
84 16-03-2003 16:42:13 16.1 C 3.02 g/m*3 16.1 C 0 km/h
85 16-03-2003 16:54:13 16.4 C 3.49 g/m*3 16.4 C 0 km/h
86 16-03-2003 17:06:13 16.1 C 3.43 g/m*3 16.1 C 0 km/h
87 16-03-2003 17:18:13 16 C 3.41 g/m*3 16 C 0 km/h
88 16-03-2003 17:30:13 16 C 3.81 g/m*3 16 C 0 km/h
89 16-03-2003 17:42:13 15.3 C 3.4 g/m*3 15.3 C 0 km/h
90 16-03-2003 17:54:13 14.8 C 3.8 g/m*3 14.8 C 0 km/h
91 16-03-2003 18:06:13 13.8 C 3.93 g/m*3 13.8 C 0 km/h
92 16-03-2003 18:18:13 13 C 3.97 g/m*3 13 C 0 km/h
93 16-03-2003 18:30:13 11.4 C 4.11 g/m*3 11.4 C 0 km/h
94 16-03-2003 18:42:13 10.1 C 3.97 g/m*3 10.1 C 0 km/h
95 16-03-2003 18:54:13 9.7 C 3.96 g/m*3 9.7 C 0 km/h
96 16-03-2003 19:06:13 9.2 C 4.02 g/m*3 9.2 C 0 km/h
97 16-03-2003 19:18:13 8.5 C 4.1 g/m*3 8.5 C 0 km/h
98 16-03-2003 19:30:13 8.1 C 3.99 g/m*3 8.1 C 0 km/h
99 16-03-2003 19:43:14 7.6 C 4.11 g/m*3 7.6 C 0 km/h
100 16-03-2003 19:55:14 7.3 C 4.11 g/m*3 7.3 C 0 km/h
Sensor: Nr:Datum:Temp:Abs-Feuchte:Windchill:Wind:
Aussen-T/F 101 16-03-2003 20:07:14 7 C 4.26 g/m*3 7 C 0 km/h
102 16-03-2003 20:19:14 6.7 C 4.26 g/m*3 6.7 C 0 km/h
103 16-03-2003 20:31:14 6.5 C 4.2 g/m*3 6.5 C 0 km/h
104 16-03-2003 20:43:14 6.3 C 4.22 g/m*3 6.3 C 0 km/h
105 16-03-2003 20:55:14 6 C 4.21 g/m*3 6 C 0 km/h
106 16-03-2003 21:07:14 5.8 C 4.3 g/m*3 5.8 C 0 km/h
107 16-03-2003 21:19:14 5.4 C 4.19 g/m*3 5.4 C 0 km/h
108 16-03-2003 21:31:14 5.1 C 4.24 g/m*3 5.1 C 0 km/h
109 16-03-2003 21:43:14 4.9 C 4.25 g/m*3 4.9 C 0 km/h
110 16-03-2003 21:55:14 4.5 C 4.21 g/m*3 4.5 C 0 km/h
111 16-03-2003 22:07:14 4.2 C 4.19 g/m*3 4.2 C 0 km/h
112 16-03-2003 22:19:14 3.7 C 4.18 g/m*3 3.7 C 0 km/h
113 16-03-2003 22:31:14 3.8 C 4.33 g/m*3 3.8 C 0 km/h
114 16-03-2003 22:43:14 3.6 C 4.27 g/m*3 3.6 C 0 km/h
115 16-03-2003 22:55:14 3.4 C 4.28 g/m*3 3.4 C 0 km/h
116 16-03-2003 23:07:14 3.4 C 4.28 g/m*3 3.4 C 0 km/h
117 16-03-2003 23:19:14 3.2 C 4.22 g/m*3 3.2 C 0 km/h
118 16-03-2003 23:31:14 3 C 4.22 g/m*3 3 C 0 km/h
119 16-03-2003 23:43:14 3 C 4.16 g/m*3 3 C 0 km/h
120 16-03-2003 23:55:14 2.7 C 4.14 g/m*3 2.7 C 0 km/h
121 17-03-2003 00:07:14 2.5 C 4.14 g/m*3 2.5 C 0 km/h
122 17-03-2003 00:19:14 2.3 C 4.14 g/m*3 2.3 C 0 km/h
123 17-03-2003 00:31:14 2.2 C 4.11 g/m*3 2.2 C 0 km/h
124 17-03-2003 00:43:14 1.9 C 4.14 g/m*3 1.9 C 0 km/h
125 17-03-2003 00:55:14 1.6 C 4.06 g/m*3 1.6 C 0 km/h
Sensor: Nr:Datum:Temp:Abs-Feuchte:Windchill:Wind:
Aussen-T/F 126 17-03-2003 01:07:14 1.4 C 4.05 g/m*3 1.4 C 0 km/h
127 17-03-2003 01:19:14 1.2 C 4.05 g/m*3 1.2 C 0 km/h
128 17-03-2003 01:31:14 1.1 C 4.08 g/m*3 1.1 C 0 km/h
129 17-03-2003 01:43:14 0.9 C 4.07 g/m*3 0.9 C 0 km/h
130 17-03-2003 01:55:14 0.8 C 4.04 g/m*3 0.8 C 0 km/h
131 17-03-2003 02:07:14 0.7 C 4.02 g/m*3 0.7 C 0 km/h
132 17-03-2003 02:19:14 0.6 C 4.04 g/m*3 0.6 C 0 km/h
133 17-03-2003 02:31:14 0.5 C 4.11 g/m*3 0.5 C 0 km/h
134 17-03-2003 02:43:14 0.2 C 4.03 g/m*3 0.2 C 0 km/h
135 17-03-2003 02:55:14 0.1 C 4 g/m*3 0.1 C 0 km/h
136 17-03-2003 03:07:14 -0.1 C 3.95 g/m*3 -0.1 C 0 km/h
137 17-03-2003 03:19:14 0.1 C 4.05 g/m*3 0.1 C 0 km/h
138 17-03-2003 03:31:14 -0.4 C 3.91 g/m*3 -0.4 C 0 km/h
139 17-03-2003 03:43:14 -0.3 C 3.94 g/m*3 -0.3 C 0 km/h
140 17-03-2003 03:55:14 -0.3 C 3.94 g/m*3 -0.3 C 0 km/h
141 17-03-2003 04:07:14 -0.2 C 4.01 g/m*3 -0.2 C 0 km/h
142 17-03-2003 04:19:14 -0.3 C 3.99 g/m*3 -0.3 C 0 km/h
143 17-03-2003 04:31:14 -0.3 C 3.99 g/m*3 -0.3 C 0 km/h
144 17-03-2003 04:43:14 -0.5 C 3.88 g/m*3 -0.5 C 0 km/h
145 17-03-2003 04:55:14 -0.6 C 3.9 g/m*3 -0.6 C 0 km/h
146 17-03-2003 05:19:14 -0.6 C 3.95 g/m*3 -0.6 C 0 km/h
147 17-03-2003 05:31:14 -0.9 C 3.87 g/m*3 -0.9 C 0 km/h
148 17-03-2003 05:43:14 -1 C 3.8 g/m*3 -1 C 0 km/h
149 17-03-2003 05:55:14 -1.1 C 3.82 g/m*3 -1.1 C 0 km/h
150 17-03-2003 06:07:14 -1.2 C 3.83 g/m*3 -1.2 C 0 km/h
Sensor: Nr:Datum:Temp:Abs-Feuchte:Windchill:Wind:
Aussen-T/F 151 17-03-2003 06:19:14 -1.2 C 3.79 g/m*3 -1.2 C 0 km/h
152 17-03-2003 06:31:14 -1.2 C 3.83 g/m*3 -1.2 C 0 km/h
153 17-03-2003 06:43:14 -1.1 C 3.86 g/m*3 -1.1 C 0 km/h
154 17-03-2003 06:55:14 -1 C 3.93 g/m*3 -1 C 0 km/h
155 17-03-2003 07:07:14 -1.1 C 3.91 g/m*3 -1.1 C 0 km/h
156 17-03-2003 07:19:14 -1.1 C 3.91 g/m*3 -1.1 C 0 km/h
157 17-03-2003 07:31:14 -0.9 C 3.91 g/m*3 -0.9 C 0 km/h
158 17-03-2003 07:43:14 -0.7 C 3.97 g/m*3 -0.7 C 0 km/h
159 17-03-2003 07:55:14 -0.5 C 3.98 g/m*3 -0.5 C 0 km/h
160 17-03-2003 08:07:14 -0.3 C 3.99 g/m*3 -0.3 C 0 km/h
161 17-03-2003 08:19:14 -0.1 C 4.04 g/m*3 -0.1 C 0 km/h
162 17-03-2003 08:31:14 0.2 C 4.03 g/m*3 0.2 C 0 km/h
163 17-03-2003 08:43:14 0.3 C 4.06 g/m*3 0.3 C 0 km/h
164 17-03-2003 08:55:14 0.5 C 4.11 g/m*3 0.5 C 0 km/h
165 17-03-2003 09:07:15 0.8 C 4.15 g/m*3 0.8 C 0 km/h
166 17-03-2003 09:19:15 1.1 C 4.13 g/m*3 1.1 C 0 km/h
167 17-03-2003 09:31:15 1.6 C 4.22 g/m*3 1.6 C 0 km/h
168 17-03-2003 09:43:14 1.6 C 4.16 g/m*3 1.6 C 0 km/h
169 17-03-2003 09:55:14 2.6 C 4.4 g/m*3 2.6 C 0 km/h
170 17-03-2003 10:07:15 3.5 C 4.43 g/m*3 3.5 C 0 km/h
171 17-03-2003 10:19:15 4.2 C 4.38 g/m*3 4.2 C 0 km/h
172 17-03-2003 10:31:15 4.7 C 4.46 g/m*3 4.7 C 0 km/h
173 17-03-2003 10:43:14 5.2 C 4.41 g/m*3 5.2 C 0 km/h
174 17-03-2003 10:55:14 6 C 4.5 g/m*3 6 C 0 km/h
175 17-03-2003 11:07:15 6.5 C 4.35 g/m*3 6.5 C 0 km/h
Sensor: Nr:Datum:Temp:Abs-Feuchte:Windchill:Wind:
Aussen-T/F 176 17-03-2003 11:19:15 6.5 C 4.35 g/m*3 6.5 C 0 km/h
177 17-03-2003 11:31:15 7.2 C 4.47 g/m*3 7.2 C 0 km/h
178 17-03-2003 11:43:15 8.5 C 4.61 g/m*3 8.5 C 0 km/h
179 17-03-2003 11:55:15 9 C 4.41 g/m*3 9 C 0 km/h
180 17-03-2003 11:56:15 9 C 4.41 g/m*3 9 C 0 km/h
181 17-03-2003 12:07:14 10.2 C 4.28 g/m*3 10.2 C 0 km/h
182 17-03-2003 12:08:15 10.2 C 4.28 g/m*3 10.2 C 0 km/h
183 17-03-2003 12:19:14 10.4 C 4.24 g/m*3 10.4 C 0 km/h
184 17-03-2003 12:20:15 10.4 C 4.24 g/m*3 10.4 C 0 km/h
185 17-03-2003 12:31:14 11.2 C 4.16 g/m*3 11.2 C 0 km/h
186 17-03-2003 12:32:15 11.2 C 4.16 g/m*3 11.2 C 0 km/h
187 17-03-2003 12:43:14 11.3 C 4.08 g/m*3 11.3 C 0 km/h
188 17-03-2003 12:44:15 11.3 C 4.08 g/m*3 11.3 C 0 km/h
189 17-03-2003 12:55:14 11.5 C 4.03 g/m*3 11.5 C 0 km/h
190 17-03-2003 12:56:15 11.5 C 4.03 g/m*3 11.5 C 0 km/h
191 17-03-2003 13:07:14 10.8 C 3.95 g/m*3 10.8 C 0 km/h
192 17-03-2003 13:08:15 10.8 C 3.95 g/m*3 10.8 C 0 km/h
193 17-03-2003 13:19:14 11.4 C 3.9 g/m*3 11.4 C 0 km/h
194 17-03-2003 13:20:15 11.4 C 3.9 g/m*3 11.4 C 0 km/h
195 17-03-2003 13:31:14 11.8 C 3.68 g/m*3 11.8 C 0 km/h
196 17-03-2003 13:32:15 11.8 C 3.68 g/m*3 11.8 C 0 km/h
197 17-03-2003 13:43:13 12.4 C 3.71 g/m*3 12.4 C 0 km/h
198 17-03-2003 13:44:15 12.4 C 3.71 g/m*3 12.4 C 0 km/h
199 17-03-2003 13:55:13 13.1 C 3.65 g/m*3 13.1 C 0 km/h
200 17-03-2003 13:56:15 13.1 C 3.65 g/m*3 13.1 C 0 km/h
Sensor: Nr:Datum:Temp:Abs-Feuchte:Windchill:Wind:
Aussen-T/F 201 17-03-2003 14:07:14 13.2 C 2.99 g/m*3 13.2 C 0 km/h
202 17-03-2003 14:08:15 13.2 C 2.99 g/m*3 13.2 C 0 km/h
203 17-03-2003 14:19:14 13.7 C 3.08 g/m*3 13.7 C 0 km/h
204 17-03-2003 14:20:15 13.7 C 3.08 g/m*3 13.7 C 0 km/h
205 17-03-2003 14:31:14 14.2 C 3.17 g/m*3 14.2 C 0 km/h
206 17-03-2003 14:32:15 14.2 C 3.17 g/m*3 14.2 C 0 km/h
207 17-03-2003 14:43:14 14.7 C 3.27 g/m*3 14.7 C 0 km/h
208 17-03-2003 14:44:15 14.7 C 3.27 g/m*3 14.7 C 0 km/h
209 17-03-2003 14:55:14 14.2 C 3.17 g/m*3 14.2 C 0 km/h
210 17-03-2003 14:56:15 14.2 C 3.17 g/m*3 14.2 C 0 km/h
211 17-03-2003 15:07:14 14.5 C 3.23 g/m*3 14.5 C 0 km/h
212 17-03-2003 15:08:15 14.5 C 3.23 g/m*3 14.5 C 0 km/h
213 17-03-2003 15:19:14 14.7 C 3.27 g/m*3 14.7 C 0 km/h
214 17-03-2003 15:20:15 14.7 C 3.27 g/m*3 14.7 C 0 km/h
215 17-03-2003 15:31:14 15 C 2.95 g/m*3 15 C 0 km/h
216 17-03-2003 15:32:15 15 C 2.95 g/m*3 15 C 0 km/h
217 17-03-2003 15:43:14 14.5 C 2.61 g/m*3 14.5 C 0 km/h
218 17-03-2003 15:44:15 14.5 C 2.61 g/m*3 14.5 C 0 km/h
219 17-03-2003 15:55:14 15 C 2.82 g/m*3 15 C 0 km/h
220 17-03-2003 15:56:15 15 C 2.82 g/m*3 15 C 0 km/h
221 17-03-2003 16:07:13 14.5 C 2.98 g/m*3 14.5 C 0 km/h
222 17-03-2003 16:08:15 14.5 C 2.98 g/m*3 14.5 C 0 km/h
223 17-03-2003 16:19:13 14.3 C 2.95 g/m*3 14.3 C 0 km/h
224 17-03-2003 16:20:15 14.3 C 2.95 g/m*3 14.3 C 0 km/h
225 17-03-2003 16:31:13 14.4 C 3.09 g/m*3 14.4 C 0 km/h
Sensor: Nr:Datum:Temp:Abs-Feuchte:Windchill:Wind:
Aussen-T/F 226 17-03-2003 16:32:15 14.4 C 3.09 g/m*3 14.4 C 0 km/h
227 17-03-2003 16:43:14 14.4 C 3.09 g/m*3 14.4 C 0 km/h
228 17-03-2003 16:44:15 14.4 C 3.09 g/m*3 14.4 C 0 km/h
229 17-03-2003 16:55:14 14.3 C 3.07 g/m*3 14.3 C 0 km/h
230 17-03-2003 16:56:15 14.3 C 3.07 g/m*3 14.3 C 0 km/h
231 17-03-2003 17:07:15 13.5 C 3.16 g/m*3 13.5 C 0 km/h
232 17-03-2003 17:08:15 13.5 C 3.16 g/m*3 13.5 C 0 km/h
233 17-03-2003 17:19:15 13.5 C 3.04 g/m*3 13.5 C 0 km/h
234 17-03-2003 17:20:15 13.5 C 3.04 g/m*3 13.5 C 0 km/h
235 17-03-2003 17:31:15 13.1 C 2.97 g/m*3 13.1 C 0 km/h
236 17-03-2003 17:32:15 13.1 C 2.97 g/m*3 13.1 C 0 km/h
237 17-03-2003 17:43:15 12.7 C 3.34 g/m*3 12.7 C 0 km/h
238 17-03-2003 17:44:15 12.7 C 3.34 g/m*3 12.7 C 0 km/h
239 17-03-2003 17:55:15 11.7 C 3.87 g/m*3 11.7 C 0 km/h
240 17-03-2003 17:56:15 11.7 C 3.87 g/m*3 11.7 C 0 km/h
241 17-03-2003 18:07:14 10.8 C 4.15 g/m*3 10.8 C 0 km/h
242 17-03-2003 18:08:15 10.8 C 4.15 g/m*3 10.8 C 0 km/h
243 17-03-2003 18:19:14 10.2 C 4 g/m*3 10.2 C 0 km/h
244 17-03-2003 18:20:15 10.2 C 4 g/m*3 10.2 C 0 km/h
245 17-03-2003 18:31:14 9.7 C 4.15 g/m*3 9.7 C 0 km/h
246 17-03-2003 18:32:15 9.7 C 4.15 g/m*3 9.7 C 0 km/h
247 17-03-2003 18:43:15 9.2 C 4.02 g/m*3 9.2 C 0 km/h
248 17-03-2003 18:44:15 9.2 C 4.02 g/m*3 9.2 C 0 km/h
249 17-03-2003 18:55:15 8.9 C 4.29 g/m*3 8.9 C 0 km/h
250 17-03-2003 18:56:15 8.9 C 4.29 g/m*3 8.9 C 0 km/h
Sensor: Nr:Datum:Temp:Abs-Feuchte:Windchill:Wind:
Aussen-T/F 251 17-03-2003 19:07:14 8.4 C 4.24 g/m*3 8.4 C 0 km/h
252 17-03-2003 19:08:15 8.4 C 4.24 g/m*3 8.4 C 0 km/h
253 17-03-2003 19:19:14 7.9 C 4.52 g/m*3 7.9 C 0 km/h
254 17-03-2003 19:20:15 7.9 C 4.52 g/m*3 7.9 C 0 km/h
255 17-03-2003 19:31:14 7.4 C 4.45 g/m*3 7.4 C 0 km/h
256 17-03-2003 19:32:15 7.4 C 4.45 g/m*3 7.4 C 0 km/h
257 17-03-2003 19:43:14 7.1 C 4.45 g/m*3 7.1 C 0 km/h
258 17-03-2003 19:44:15 7.1 C 4.45 g/m*3 7.1 C 0 km/h
259 17-03-2003 19:55:14 6.8 C 4.44 g/m*3 6.8 C 0 km/h
260 17-03-2003 19:56:15 6.8 C 4.44 g/m*3 6.8 C 0 km/h
261 17-03-2003 20:07:14 6.2 C 4.41 g/m*3 6.2 C 0 km/h
262 17-03-2003 20:08:15 6.2 C 4.41 g/m*3 6.2 C 0 km/h
263 17-03-2003 20:19:14 5.5 C 4.21 g/m*3 5.5 C 0 km/h
264 17-03-2003 20:20:15 5.5 C 4.21 g/m*3 5.5 C 0 km/h
265 17-03-2003 20:31:14 4.9 C 4.25 g/m*3 4.9 C 0 km/h
266 17-03-2003 20:32:15 4.9 C 4.25 g/m*3 4.9 C 0 km/h
267 17-03-2003 20:44:14 4.5 C 4.21 g/m*3 4.5 C 0 km/h
268 17-03-2003 20:44:15 4.5 C 4.21 g/m*3 4.5 C 0 km/h
269 17-03-2003 20:56:14 4.1 C 4.16 g/m*3 4.1 C 0 km/h
270 17-03-2003 20:56:15 4.1 C 4.16 g/m*3 4.1 C 0 km/h
271 17-03-2003 21:08:14 3.9 C 4.17 g/m*3 3.9 C 0 km/h
272 17-03-2003 21:08:15 3.9 C 4.17 g/m*3 3.9 C 0 km/h
273 17-03-2003 21:20:14 3.6 C 4.09 g/m*3 3.6 C 0 km/h
274 17-03-2003 21:20:15 3.6 C 4.09 g/m*3 3.6 C 0 km/h
275 17-03-2003 21:32:14 3.3 C 4.13 g/m*3 3.3 C 0 km/h
Sensor: Nr:Datum:Temp:Abs-Feuchte:Windchill:Wind:
Aussen-T/F 276 17-03-2003 21:32:15 3.3 C 4.13 g/m*3 3.3 C 0 km/h
277 17-03-2003 21:44:14 3.4 C 4.15 g/m*3 3.4 C 0 km/h
278 17-03-2003 21:44:15 3.4 C 4.15 g/m*3 3.4 C 0 km/h
279 17-03-2003 21:56:14 3.4 C 4.09 g/m*3 3.4 C 0 km/h
280 17-03-2003 21:56:15 3.4 C 4.09 g/m*3 3.4 C 0 km/h
281 17-03-2003 22:08:14 3.3 C 4.13 g/m*3 3.3 C 0 km/h
282 17-03-2003 22:08:15 3.3 C 4.13 g/m*3 3.3 C 0 km/h
283 17-03-2003 22:20:14 3.5 C 4.18 g/m*3 3.5 C 0 km/h
284 17-03-2003 22:20:15 3.5 C 4.18 g/m*3 3.5 C 0 km/h
285 17-03-2003 22:32:14 3.8 C 4.2 g/m*3 3.8 C 0 km/h
286 17-03-2003 22:32:15 3.8 C 4.2 g/m*3 3.8 C 0 km/h
287 17-03-2003 22:44:14 3.7 C 4.18 g/m*3 3.7 C 0 km/h
288 17-03-2003 22:44:15 3.7 C 4.18 g/m*3 3.7 C 0 km/h
289 17-03-2003 22:56:14 2.9 C 4.02 g/m*3 2.9 C 0 km/h
290 17-03-2003 22:56:15 2.9 C 4.02 g/m*3 2.9 C 0 km/h
291 17-03-2003 23:08:14 2.7 C 4.08 g/m*3 2.7 C 0 km/h
292 17-03-2003 23:08:15 2.7 C 4.08 g/m*3 2.7 C 0 km/h
293 17-03-2003 23:20:14 2.8 C 4.16 g/m*3 2.8 C 0 km/h
294 17-03-2003 23:20:15 2.8 C 4.16 g/m*3 2.8 C 0 km/h
295 17-03-2003 23:32:14 2.7 C 4.14 g/m*3 2.7 C 0 km/h
296 17-03-2003 23:32:15 2.7 C 4.14 g/m*3 2.7 C 0 km/h
297 17-03-2003 23:44:14 2.4 C 4.05 g/m*3 2.4 C 0 km/h
298 17-03-2003 23:44:15 2.4 C 4.05 g/m*3 2.4 C 0 km/h
299 17-03-2003 23:56:14 2.2 C 4.06 g/m*3 2.2 C 0 km/h
300 17-03-2003 23:56:15 2.2 C 4.06 g/m*3 2.2 C 0 km/h
Sensor: Nr:Datum:Temp:Abs-Feuchte:Windchill:Wind:
Aussen-T/F 301 18-03-2003 00:08:14 2 C 4.06 g/m*3 2 C 0 km/h
302 18-03-2003 00:08:15 2 C 4.06 g/m*3 2 C 0 km/h
303 18-03-2003 00:20:14 1.7 C 4.03 g/m*3 1.7 C 0 km/h
304 18-03-2003 00:20:15 1.7 C 4.03 g/m*3 1.7 C 0 km/h
305 18-03-2003 00:32:14 1.2 C 3.95 g/m*3 1.2 C 0 km/h
306 18-03-2003 00:32:15 1.2 C 3.95 g/m*3 1.2 C 0 km/h
307 18-03-2003 00:44:14 1.2 C 4 g/m*3 1.2 C 0 km/h
308 18-03-2003 00:44:15 1.2 C 4 g/m*3 1.2 C 0 km/h
309 18-03-2003 00:56:14 1.2 C 4 g/m*3 1.2 C 0 km/h
310 18-03-2003 00:56:15 1.2 C 4 g/m*3 1.2 C 0 km/h
311 18-03-2003 01:08:14 0.9 C 3.97 g/m*3 0.9 C 0 km/h
312 18-03-2003 01:08:15 0.9 C 3.97 g/m*3 0.9 C 0 km/h
313 18-03-2003 01:20:14 0.7 C 3.97 g/m*3 0.7 C 0 km/h
314 18-03-2003 01:20:15 0.7 C 3.97 g/m*3 0.7 C 0 km/h
315 18-03-2003 01:32:14 0.5 C 3.96 g/m*3 0.5 C 0 km/h
316 18-03-2003 01:32:15 0.5 C 3.96 g/m*3 0.5 C 0 km/h
317 18-03-2003 01:44:14 0.5 C 4.01 g/m*3 0.5 C 0 km/h
318 18-03-2003 01:44:15 0.5 C 4.01 g/m*3 0.5 C 0 km/h
319 18-03-2003 01:56:14 0.3 C 3.96 g/m*3 0.3 C 0 km/h
320 18-03-2003 01:56:15 0.3 C 3.96 g/m*3 0.3 C 0 km/h
321 18-03-2003 02:08:14 0.2 C 3.93 g/m*3 0.2 C 0 km/h
322 18-03-2003 02:08:15 0.2 C 3.93 g/m*3 0.2 C 0 km/h
323 18-03-2003 02:20:14 0.2 C 3.98 g/m*3 0.2 C 0 km/h
324 18-03-2003 02:20:15 0.2 C 3.98 g/m*3 0.2 C 0 km/h
325 18-03-2003 02:32:14 0 C 3.92 g/m*3 0 C 0 km/h
Sensor: Nr:Datum:Temp:Abs-Feuchte:Windchill:Wind:
Aussen-T/F 326 18-03-2003 02:32:15 0 C 3.92 g/m*3 0 C 0 km/h
327 18-03-2003 02:44:14 0 C 3.97 g/m*3 0 C 0 km/h
328 18-03-2003 02:44:15 0 C 3.97 g/m*3 0 C 0 km/h
329 18-03-2003 02:56:14 -0.3 C 3.89 g/m*3 -0.3 C 0 km/h
330 18-03-2003 02:56:15 -0.3 C 3.89 g/m*3 -0.3 C 0 km/h
331 18-03-2003 03:08:14 -0.5 C 3.84 g/m*3 -0.5 C 0 km/h
332 18-03-2003 03:08:15 -0.5 C 3.84 g/m*3 -0.5 C 0 km/h
333 18-03-2003 03:20:14 -0.4 C 3.91 g/m*3 -0.4 C 0 km/h
334 18-03-2003 03:20:15 -0.4 C 3.91 g/m*3 -0.4 C 0 km/h
335 18-03-2003 03:32:14 -0.4 C 3.96 g/m*3 -0.4 C 0 km/h
336 18-03-2003 03:32:15 -0.4 C 3.96 g/m*3 -0.4 C 0 km/h
337 18-03-2003 03:44:14 -0.6 C 3.9 g/m*3 -0.6 C 0 km/h
338 18-03-2003 03:44:15 -0.6 C 3.9 g/m*3 -0.6 C 0 km/h
339 18-03-2003 03:56:14 -0.6 C 3.9 g/m*3 -0.6 C 0 km/h
340 18-03-2003 03:56:15 -0.6 C 3.9 g/m*3 -0.6 C 0 km/h
341 18-03-2003 04:08:14 -0.7 C 3.88 g/m*3 -0.7 C 0 km/h
342 18-03-2003 04:08:15 -0.7 C 3.88 g/m*3 -0.7 C 0 km/h
343 18-03-2003 04:20:14 -1 C 3.8 g/m*3 -1 C 0 km/h
344 18-03-2003 04:20:15 -1 C 3.8 g/m*3 -1 C 0 km/h
345 18-03-2003 04:32:14 -1.1 C 3.82 g/m*3 -1.1 C 0 km/h
346 18-03-2003 04:32:15 -1.1 C 3.82 g/m*3 -1.1 C 0 km/h
347 18-03-2003 04:44:14 -1.3 C 3.76 g/m*3 -1.3 C 0 km/h
348 18-03-2003 04:44:15 -1.3 C 3.76 g/m*3 -1.3 C 0 km/h
349 18-03-2003 04:56:14 -1.5 C 3.71 g/m*3 -1.5 C 0 km/h
350 18-03-2003 04:56:15 -1.5 C 3.71 g/m*3 -1.5 C 0 km/h
Sensor: Nr:Datum:Temp:Abs-Feuchte:Windchill:Wind:
Aussen-T/F 351 18-03-2003 05:08:14 -1.8 C 3.63 g/m*3 -1.8 C 0 km/h
352 18-03-2003 05:08:15 -1.8 C 3.63 g/m*3 -1.8 C 0 km/h
353 18-03-2003 05:20:14 -1.7 C 3.66 g/m*3 -1.7 C 0 km/h
354 18-03-2003 05:32:14 -1.7 C 3.7 g/m*3 -1.7 C 0 km/h
355 18-03-2003 05:44:14 -1.6 C 3.73 g/m*3 -1.6 C 0 km/h
356 18-03-2003 05:56:14 -1.8 C 3.68 g/m*3 -1.8 C 0 km/h
357 18-03-2003 06:08:14 -1.8 C 3.68 g/m*3 -1.8 C 0 km/h
358 18-03-2003 06:20:14 -1.8 C 3.72 g/m*3 -1.8 C 0 km/h
359 18-03-2003 06:32:14 -1.8 C 3.72 g/m*3 -1.8 C 0 km/h
360 18-03-2003 06:44:14 -1.8 C 3.72 g/m*3 -1.8 C 0 km/h
361 18-03-2003 06:56:14 -1.8 C 3.72 g/m*3 -1.8 C 0 km/h
362 18-03-2003 07:08:14 -1.9 C 3.69 g/m*3 -1.9 C 0 km/h
363 18-03-2003 07:20:14 -1.7 C 3.79 g/m*3 -1.7 C 0 km/h
364 18-03-2003 07:32:14 -1.6 C 3.81 g/m*3 -1.6 C 0 km/h
365 18-03-2003 07:44:14 -1.5 C 3.84 g/m*3 -1.5 C 0 km/h
366 18-03-2003 07:56:14 -1.4 C 3.87 g/m*3 -1.4 C 0 km/h
367 18-03-2003 08:08:14 -1.2 C 3.92 g/m*3 -1.2 C 0 km/h
368 18-03-2003 08:20:14 -1 C 3.98 g/m*3 -1 C 0 km/h
369 18-03-2003 08:32:15 -0.8 C 4.03 g/m*3 -0.8 C 0 km/h
370 18-03-2003 08:44:15 -0.6 C 4.09 g/m*3 -0.6 C 0 km/h
371 18-03-2003 08:56:15 -0.3 C 4.18 g/m*3 -0.3 C 0 km/h
372 18-03-2003 09:08:14 0.2 C 4.32 g/m*3 0.2 C 0 km/h
373 18-03-2003 09:20:14 0.7 C 4.42 g/m*3 0.7 C 0 km/h
374 18-03-2003 09:32:14 1.3 C 4.5 g/m*3 1.3 C 0 km/h
375 18-03-2003 09:44:14 1.9 C 4.69 g/m*3 1.9 C 0 km/h
Sensor: Nr:Datum:Temp:Abs-Feuchte:Windchill:Wind:
Aussen-T/F 376 18-03-2003 09:56:14 2.6 C 4.8 g/m*3 2.6 C 0 km/h
377 18-03-2003 10:08:14 3.5 C 4.86 g/m*3 3.5 C 0 km/h
378 18-03-2003 10:20:14 4.1 C 4.74 g/m*3 4.1 C 0 km/h
379 18-03-2003 10:32:14 4.8 C 4.76 g/m*3 4.8 C 0 km/h
380 18-03-2003 10:44:14 5.6 C 4.81 g/m*3 5.6 C 0 km/h
381 18-03-2003 10:56:14 6.4 C 4.77 g/m*3 6.4 C 0 km/h
382 18-03-2003 11:08:14 7 C 4.65 g/m*3 7 C 0 km/h
383 18-03-2003 11:20:14 7.8 C 4.65 g/m*3 7.8 C 0 km/h
384 18-03-2003 11:32:15 8.4 C 4.58 g/m*3 8.4 C 0 km/h
385 18-03-2003 11:44:15 8.9 C 4.56 g/m*3 8.9 C 0 km/h
386 18-03-2003 11:56:15 9.4 C 4.43 g/m*3 9.4 C 0 km/h
387 18-03-2003 12:08:14 10.1 C 4.35 g/m*3 10.1 C 0 km/h
388 18-03-2003 12:20:14 11.1 C 4.33 g/m*3 11.1 C 0 km/h
389 18-03-2003 12:32:14 11.5 C 4.23 g/m*3 11.5 C 0 km/h
390 18-03-2003 12:44:14 11.7 C 4.18 g/m*3 11.7 C 0 km/h
391 18-03-2003 12:56:14 12.2 C 4.1 g/m*3 12.2 C 0 km/h
392 18-03-2003 13:08:14 12.4 C 4.04 g/m*3 12.4 C 0 km/h
393 18-03-2003 13:20:14 12.9 C 4.06 g/m*3 12.9 C 0 km/h
394 18-03-2003 13:32:14 13.5 C 4.09 g/m*3 13.5 C 0 km/h
395 18-03-2003 13:44:14 13.7 C 4.03 g/m*3 13.7 C 0 km/h
396 18-03-2003 13:56:14 14.2 C 3.91 g/m*3 14.2 C 0 km/h
397 18-03-2003 14:08:14 14.8 C 3.93 g/m*3 14.8 C 0 km/h
398 18-03-2003 14:20:14 15.3 C 3.92 g/m*3 15.3 C 0 km/h
399 18-03-2003 14:32:14 15.7 C 3.88 g/m*3 15.7 C 0 km/h
400 18-03-2003 14:44:14 16.1 C 3.7 g/m*3 16.1 C 0 km/h
Sensor: Nr:Datum:Temp:Abs-Feuchte:Windchill:Wind:
Aussen-T/F 401 18-03-2003 14:56:14 16.5 C 3.65 g/m*3 16.5 C 0 km/h
402 18-03-2003 15:08:14 16.1 C 3.02 g/m*3 16.1 C 0 km/h
403 18-03-2003 15:20:14 16.9 C 3.31 g/m*3 16.9 C 0 km/h
404 18-03-2003 15:32:15 17.3 C 3.24 g/m*3 17.3 C 0 km/h
405 18-03-2003 15:44:15 17.4 C 2.96 g/m*3 17.4 C 0 km/h
406 18-03-2003 15:56:15 17.6 C 3 g/m*3 17.6 C 0 km/h
407 18-03-2003 16:08:14 18.1 C 3.09 g/m*3 18.1 C 0 km/h
408 18-03-2003 16:20:14 17.7 C 3.02 g/m*3 17.7 C 0 km/h
409 18-03-2003 16:32:15 18.3 C 3.13 g/m*3 18.3 C 0 km/h
410 18-03-2003 16:44:15 18.3 C 3.28 g/m*3 18.3 C 0 km/h
411 18-03-2003 16:56:15 18.3 C 3.28 g/m*3 18.3 C 0 km/h
412 18-03-2003 17:08:14 18.1 C 3.09 g/m*3 18.1 C 0 km/h
413 18-03-2003 17:20:14 17.4 C 3.41 g/m*3 17.4 C 0 km/h
414 18-03-2003 17:32:14 17.4 C 3.71 g/m*3 17.4 C 0 km/h
415 18-03-2003 17:44:14 16.9 C 3.74 g/m*3 16.9 C 0 km/h
416 18-03-2003 17:56:14 16.3 C 3.75 g/m*3 16.3 C 0 km/h
417 18-03-2003 18:44:15 11.7 C 4.18 g/m*3 11.7 C 0 km/h
418 18-03-2003 18:56:15 10.5 C 4.07 g/m*3 10.5 C 0 km/h
419 18-03-2003 19:08:14 9.8 C 4.18 g/m*3 9.8 C 0 km/h
420 18-03-2003 19:20:14 9.3 C 4.13 g/m*3 9.3 C 0 km/h
421 18-03-2003 19:32:15 8.7 C 4.24 g/m*3 8.7 C 0 km/h
422 18-03-2003 19:44:15 8.5 C 4.27 g/m*3 8.5 C 0 km/h
423 18-03-2003 19:56:15 8.1 C 4.24 g/m*3 8.1 C 0 km/h
424 18-03-2003 20:09:15 7.9 C 4.27 g/m*3 7.9 C 0 km/h
425 18-03-2003 20:21:15 7.5 C 4.32 g/m*3 7.5 C 0 km/h
Sensor: Nr:Datum:Temp:Abs-Feuchte:Windchill:Wind:
Aussen-T/F 426 18-03-2003 20:33:15 7.1 C 4.21 g/m*3 7.1 C 0 km/h
427 18-03-2003 20:57:15 6.8 C 4.36 g/m*3 6.8 C 0 km/h
428 18-03-2003 21:09:15 6.5 C 4.27 g/m*3 6.5 C 0 km/h
429 18-03-2003 21:21:15 6.4 C 4.25 g/m*3 6.4 C 0 km/h
430 18-03-2003 21:33:15 6.1 C 4.16 g/m*3 6.1 C 0 km/h
431 18-03-2003 21:45:15 5.8 C 4.15 g/m*3 5.8 C 0 km/h
432 18-03-2003 21:57:15 5.4 C 4.33 g/m*3 5.4 C 0 km/h
433 18-03-2003 22:09:15 5.2 C 4.34 g/m*3 5.2 C 0 km/h
434 18-03-2003 22:21:15 5.1 C 4.24 g/m*3 5.1 C 0 km/h
435 18-03-2003 22:33:15 5 C 4.21 g/m*3 5 C 0 km/h
436 18-03-2003 22:45:15 4.7 C 4.26 g/m*3 4.7 C 0 km/h
437 18-03-2003 22:57:15 4.4 C 4.24 g/m*3 4.4 C 0 km/h
438 18-03-2003 23:09:15 4.3 C 4.22 g/m*3 4.3 C 0 km/h
439 18-03-2003 23:21:15 4.1 C 4.22 g/m*3 4.1 C 0 km/h
440 18-03-2003 23:33:15 3.9 C 4.29 g/m*3 3.9 C 0 km/h
441 18-03-2003 23:45:15 3.7 C 4.36 g/m*3 3.7 C 0 km/h
442 18-03-2003 23:57:15 3.3 C 4.19 g/m*3 3.3 C 0 km/h
443 19-03-2003 00:09:15 3.1 C 4.25 g/m*3 3.1 C 0 km/h
444 19-03-2003 00:21:15 3 C 4.28 g/m*3 3 C 0 km/h
445 19-03-2003 00:33:15 2.8 C 4.28 g/m*3 2.8 C 0 km/h
446 19-03-2003 00:45:15 2.6 C 4.28 g/m*3 2.6 C 0 km/h
447 19-03-2003 00:57:15 2.1 C 4.08 g/m*3 2.1 C 0 km/h
448 19-03-2003 01:09:15 2 C 4.11 g/m*3 2 C 0 km/h
449 19-03-2003 01:21:15 1.9 C 4.19 g/m*3 1.9 C 0 km/h
450 19-03-2003 01:33:15 1.9 C 4.25 g/m*3 1.9 C 0 km/h
Sensor: Nr:Datum:Temp:Abs-Feuchte:Windchill:Wind:
Aussen-T/F 451 19-03-2003 01:45:15 1.8 C 4.28 g/m*3 1.8 C 0 km/h
452 19-03-2003 01:57:15 1.6 C 4.22 g/m*3 1.6 C 0 km/h
453 19-03-2003 02:09:15 1.5 C 4.24 g/m*3 1.5 C 0 km/h
454 19-03-2003 02:21:15 1.3 C 4.19 g/m*3 1.3 C 0 km/h
455 19-03-2003 02:33:15 1.1 C 4.13 g/m*3 1.1 C 0 km/h
456 19-03-2003 02:45:15 0.9 C 4.18 g/m*3 0.9 C 0 km/h
457 19-03-2003 02:57:15 0.9 C 4.23 g/m*3 0.9 C 0 km/h
458 19-03-2003 03:09:15 0.9 C 4.23 g/m*3 0.9 C 0 km/h
459 19-03-2003 03:21:15 0.8 C 4.2 g/m*3 0.8 C 0 km/h
460 19-03-2003 03:33:15 0.6 C 4.14 g/m*3 0.6 C 0 km/h
461 19-03-2003 03:45:15 0.3 C 4.01 g/m*3 0.3 C 0 km/h
462 19-03-2003 03:57:15 0.1 C 4.05 g/m*3 0.1 C 0 km/h
463 19-03-2003 04:09:15 0 C 4.02 g/m*3 0 C 0 km/h
464 19-03-2003 04:21:15 0 C 4.07 g/m*3 0 C 0 km/h
465 19-03-2003 04:33:15 -0.2 C 4.01 g/m*3 -0.2 C 0 km/h
466 19-03-2003 04:45:15 -0.2 C 4.06 g/m*3 -0.2 C 0 km/h
467 19-03-2003 04:57:15 -0.3 C 4.03 g/m*3 -0.3 C 0 km/h
468 19-03-2003 05:09:15 -0.4 C 4.01 g/m*3 -0.4 C 0 km/h
469 19-03-2003 05:21:15 -0.7 C 3.92 g/m*3 -0.7 C 0 km/h
470 19-03-2003 05:33:15 -0.7 C 3.97 g/m*3 -0.7 C 0 km/h
471 19-03-2003 05:45:15 -0.7 C 3.97 g/m*3 -0.7 C 0 km/h
472 19-03-2003 05:57:15 -1 C 3.89 g/m*3 -1 C 0 km/h
473 19-03-2003 06:09:15 -1 C 3.93 g/m*3 -1 C 0 km/h
474 19-03-2003 06:21:15 -1 C 3.93 g/m*3 -1 C 0 km/h
475 19-03-2003 06:33:15 -1.1 C 3.91 g/m*3 -1.1 C 0 km/h
Sensor: Nr:Datum:Temp:Abs-Feuchte:Windchill:Wind:
Aussen-T/F 476 19-03-2003 06:45:15 -1.2 C 3.92 g/m*3 -1.2 C 0 km/h
477 19-03-2003 06:57:15 -1.2 C 3.92 g/m*3 -1.2 C 0 km/h
478 19-03-2003 07:09:15 -1.1 C 3.95 g/m*3 -1.1 C 0 km/h
479 19-03-2003 07:21:15 -1 C 3.98 g/m*3 -1 C 0 km/h
480 19-03-2003 07:33:15 -0.8 C 4.03 g/m*3 -0.8 C 0 km/h
481 19-03-2003 07:45:15 -0.8 C 4.03 g/m*3 -0.8 C 0 km/h
482 19-03-2003 07:57:15 -0.9 C 4.01 g/m*3 -0.9 C 0 km/h
483 19-03-2003 08:09:14 -0.7 C 4.06 g/m*3 -0.7 C 0 km/h
484 19-03-2003 08:33:14 -0.3 C 4.18 g/m*3 -0.3 C 0 km/h
485 19-03-2003 08:45:14 0.1 C 4.34 g/m*3 0.1 C 0 km/h
486 19-03-2003 08:57:14 0.4 C 4.43 g/m*3 0.4 C 0 km/h
487 19-03-2003 09:09:14 1.3 C 4.66 g/m*3 1.3 C 0 km/h
488 19-03-2003 09:21:14 2.1 C 4.81 g/m*3 2.1 C 0 km/h
489 19-03-2003 09:33:15 2.7 C 4.78 g/m*3 2.7 C 0 km/h
490 19-03-2003 09:45:15 3.6 C 4.89 g/m*3 3.6 C 0 km/h
491 19-03-2003 09:57:15 4.6 C 4.96 g/m*3 4.6 C 0 km/h
492 19-03-2003 10:09:59 5.1 C 4.92 g/m*3 5.1 C 0 km/h
493 19-03-2003 10:21:03 5.9 C 5.05 g/m*3 5.9 C 0 km/h
494 19-03-2003 10:33:14 6.6 C 5.06 g/m*3 6.6 C 0 km/h
495 19-03-2003 10:45:14 7.1 C 4.91 g/m*3 7.1 C 0 km/h
496 19-03-2003 10:57:14 7.6 C 4.91 g/m*3 7.6 C 0 km/h
497 19-03-2003 11:09:14 8.3 C 4.89 g/m*3 8.3 C 0 km/h
498 19-03-2003 11:21:14 9 C 4.85 g/m*3 9 C 0 km/h
499 19-03-2003 11:33:15 10 C 4.89 g/m*3 10 C 0 km/h
500 19-03-2003 11:45:15 10.7 C 4.81 g/m*3 10.7 C 0 km/h
Sensor: Nr:Datum:Temp:Abs-Feuchte:Windchill:Wind:
Aussen-T/F 501 19-03-2003 11:57:15 11.6 C 4.68 g/m*3 11.6 C 0 km/h
502 19-03-2003 12:09:14 12.9 C 4.73 g/m*3 12.9 C 0 km/h
503 19-03-2003 12:21:14 12.8 C 4.59 g/m*3 12.8 C 0 km/h
504 19-03-2003 12:33:14 12.9 C 4.28 g/m*3 12.9 C 0 km/h
505 19-03-2003 12:45:14 13.3 C 4.39 g/m*3 13.3 C 0 km/h
506 19-03-2003 12:57:14 13.6 C 4.35 g/m*3 13.6 C 0 km/h
507 19-03-2003 13:09:14 13.7 C 4.5 g/m*3 13.7 C 0 km/h
508 19-03-2003 13:21:14 14 C 4.34 g/m*3 14 C 0 km/h
509 19-03-2003 13:33:15 14.3 C 4.55 g/m*3 14.3 C 0 km/h
510 19-03-2003 13:45:15 14.6 C 4.5 g/m*3 14.6 C 0 km/h
511 19-03-2003 13:57:15 14.3 C 4.3 g/m*3 14.3 C 0 km/h
512 19-03-2003 14:09:13 15 C 3.98 g/m*3 15 C 0 km/h
513 19-03-2003 14:21:13 14.5 C 3.98 g/m*3 14.5 C 0 km/h
514 19-03-2003 14:33:14 15.4 C 4.07 g/m*3 15.4 C 0 km/h
515 19-03-2003 14:45:14 15.6 C 3.86 g/m*3 15.6 C 0 km/h
516 19-03-2003 14:57:14 15.2 C 3.76 g/m*3 15.2 C 0 km/h
517 19-03-2003 15:09:14 16.1 C 3.84 g/m*3 16.1 C 0 km/h
518 19-03-2003 15:21:14 16.2 C 3.72 g/m*3 16.2 C 0 km/h
519 19-03-2003 15:33:13 16.2 C 3.72 g/m*3 16.2 C 0 km/h
520 19-03-2003 15:45:13 16 C 3.68 g/m*3 16 C 0 km/h
521 19-03-2003 15:57:13 16.3 C 3.88 g/m*3 16.3 C 0 km/h
522 19-03-2003 16:09:13 16 C 3.68 g/m*3 16 C 0 km/h
523 19-03-2003 16:21:13 15.8 C 4.04 g/m*3 15.8 C 0 km/h
524 19-03-2003 16:33:14 15.7 C 4.01 g/m*3 15.7 C 0 km/h
525 19-03-2003 16:45:14 15.6 C 3.99 g/m*3 15.6 C 0 km/h
Sensor: Nr:Datum:Temp:Abs-Feuchte:Windchill:Wind:
Aussen-T/F 526 19-03-2003 16:57:14 15.3 C 3.79 g/m*3 15.3 C 0 km/h
527 19-03-2003 17:09:13 14.8 C 3.67 g/m*3 14.8 C 0 km/h
528 19-03-2003 17:21:13 14.4 C 3.71 g/m*3 14.4 C 0 km/h
529 19-03-2003 17:33:14 14.3 C 3.81 g/m*3 14.3 C 0 km/h
530 19-03-2003 17:45:14 13.9 C 4.08 g/m*3 13.9 C 0 km/h
531 19-03-2003 17:57:14 13.8 C 4.05 g/m*3 13.8 C 0 km/h
532 19-03-2003 18:09:14 13.4 C 4.07 g/m*3 13.4 C 0 km/h
533 19-03-2003 18:21:14 12.8 C 4.03 g/m*3 12.8 C 0 km/h
534 19-03-2003 18:33:13 12.2 C 3.99 g/m*3 12.2 C 0 km/h
535 19-03-2003 18:45:13 11.7 C 4.08 g/m*3 11.7 C 0 km/h
536 19-03-2003 18:57:13 11.3 C 4.08 g/m*3 11.3 C 0 km/h
537 19-03-2003 19:09:13 10.8 C 4.15 g/m*3 10.8 C 0 km/h
538 19-03-2003 19:21:13 10.5 C 4.17 g/m*3 10.5 C 0 km/h
539 19-03-2003 19:33:13 10.1 C 4.16 g/m*3 10.1 C 0 km/h
540 19-03-2003 19:45:13 9.6 C 4.31 g/m*3 9.6 C 0 km/h
541 19-03-2003 19:57:13 9.3 C 4.04 g/m*3 9.3 C 0 km/h
542 19-03-2003 20:09:14 9.2 C 4.02 g/m*3 9.2 C 0 km/h
543 19-03-2003 20:21:14 8.7 C 4.06 g/m*3 8.7 C 0 km/h
544 19-03-2003 20:33:14 8.2 C 4.02 g/m*3 8.2 C 0 km/h
545 19-03-2003 20:45:14 8 C 4.13 g/m*3 8 C 0 km/h
546 19-03-2003 20:57:14 7.8 C 4.33 g/m*3 7.8 C 0 km/h
547 19-03-2003 21:10:15 7.4 C 4.37 g/m*3 7.4 C 0 km/h
548 19-03-2003 21:22:15 7.5 C 4.48 g/m*3 7.5 C 0 km/h
549 19-03-2003 21:34:15 7.5 C 4.56 g/m*3 7.5 C 0 km/h
550 19-03-2003 21:46:15 7.2 C 4.47 g/m*3 7.2 C 0 km/h
Sensor: Nr:Datum:Temp:Abs-Feuchte:Windchill:Wind:
Aussen-T/F 551 19-03-2003 21:58:15 7.2 C 4.55 g/m*3 7.2 C 0 km/h
552 19-03-2003 22:10:15 6.6 C 4.53 g/m*3 6.6 C 0 km/h
553 19-03-2003 22:22:15 6.3 C 4.66 g/m*3 6.3 C 0 km/h
554 19-03-2003 22:34:15 6 C 4.65 g/m*3 6 C 0 km/h
555 19-03-2003 22:46:15 5.8 C 4.73 g/m*3 5.8 C 0 km/h
556 19-03-2003 22:58:15 5.5 C 4.71 g/m*3 5.5 C 0 km/h
557 19-03-2003 23:10:15 5.3 C 4.71 g/m*3 5.3 C 0 km/h
558 19-03-2003 23:22:15 5.2 C 4.75 g/m*3 5.2 C 0 km/h
559 19-03-2003 23:34:15 4.8 C 4.76 g/m*3 4.8 C 0 km/h
560 19-03-2003 23:46:15 4.8 C 4.83 g/m*3 4.8 C 0 km/h
561 19-03-2003 23:58:15 4.4 C 4.77 g/m*3 4.4 C 0 km/h
562 20-03-2003 00:10:15 4.6 C 4.83 g/m*3 4.6 C 0 km/h
563 20-03-2003 00:22:15 4.4 C 4.83 g/m*3 4.4 C 0 km/h
564 20-03-2003 00:34:15 4.2 C 4.77 g/m*3 4.2 C 0 km/h
565 20-03-2003 00:46:15 3.7 C 4.74 g/m*3 3.7 C 0 km/h
566 20-03-2003 00:58:15 3.4 C 4.76 g/m*3 3.4 C 0 km/h
567 20-03-2003 01:10:15 3.2 C 4.7 g/m*3 3.2 C 0 km/h
568 20-03-2003 01:22:15 3 C 4.7 g/m*3 3 C 0 km/h
569 20-03-2003 01:34:15 2.7 C 4.72 g/m*3 2.7 C 0 km/h
570 20-03-2003 01:46:15 2.5 C 4.71 g/m*3 2.5 C 0 km/h
571 20-03-2003 01:58:15 2.7 C 4.78 g/m*3 2.7 C 0 km/h
572 20-03-2003 02:10:15 3 C 4.76 g/m*3 3 C 0 km/h
573 20-03-2003 02:22:15 3.2 C 4.76 g/m*3 3.2 C 0 km/h
574 20-03-2003 02:34:15 3.2 C 4.76 g/m*3 3.2 C 0 km/h
575 20-03-2003 02:46:15 3.2 C 4.76 g/m*3 3.2 C 0 km/h
Sensor: Nr:Datum:Temp:Abs-Feuchte:Windchill:Wind:
Aussen-T/F 576 20-03-2003 02:58:15 3.3 C 4.79 g/m*3 3.3 C 0 km/h
577 20-03-2003 03:10:15 3.3 C 4.73 g/m*3 3.3 C 0 km/h
578 20-03-2003 03:22:15 3.2 C 4.7 g/m*3 3.2 C 0 km/h
579 20-03-2003 03:34:15 3.3 C 4.73 g/m*3 3.3 C 0 km/h
580 20-03-2003 03:46:15 3.3 C 4.73 g/m*3 3.3 C 0 km/h
581 20-03-2003 03:58:15 3.3 C 4.73 g/m*3 3.3 C 0 km/h
582 20-03-2003 04:10:15 3.4 C 4.76 g/m*3 3.4 C 0 km/h
583 20-03-2003 04:22:15 3.3 C 4.73 g/m*3 3.3 C 0 km/h
584 20-03-2003 04:34:15 3.5 C 4.86 g/m*3 3.5 C 0 km/h
585 20-03-2003 04:46:15 3.7 C 4.92 g/m*3 3.7 C 0 km/h
586 20-03-2003 04:58:15 4 C 4.96 g/m*3 4 C 0 km/h
587 20-03-2003 05:10:15 4.1 C 4.99 g/m*3 4.1 C 0 km/h
588 20-03-2003 05:22:15 4.2 C 4.96 g/m*3 4.2 C 0 km/h
589 20-03-2003 05:34:15 4.2 C 4.96 g/m*3 4.2 C 0 km/h
590 20-03-2003 05:46:15 4.2 C 4.9 g/m*3 4.2 C 0 km/h
591 20-03-2003 05:58:15 4.2 C 4.9 g/m*3 4.2 C 0 km/h
592 20-03-2003 06:10:15 4.1 C 4.8 g/m*3 4.1 C 0 km/h
593 20-03-2003 06:22:15 4 C 4.77 g/m*3 4 C 0 km/h
594 20-03-2003 06:34:15 4.1 C 4.8 g/m*3 4.1 C 0 km/h
595 20-03-2003 06:46:15 4 C 4.7 g/m*3 4 C 0 km/h
596 20-03-2003 06:58:15 4 C 4.77 g/m*3 4 C 0 km/h
597 20-03-2003 07:10:15 3.9 C 4.74 g/m*3 3.9 C 0 km/h
598 20-03-2003 07:22:15 3.9 C 4.74 g/m*3 3.9 C 0 km/h
599 20-03-2003 07:34:15 4.1 C 4.8 g/m*3 4.1 C 0 km/h
600 20-03-2003 07:46:15 4 C 4.77 g/m*3 4 C 0 km/h
Sensor: Nr:Datum:Temp:Abs-Feuchte:Windchill:Wind:
Aussen-T/F 601 20-03-2003 07:58:15 4.2 C 4.83 g/m*3 4.2 C 0 km/h
602 20-03-2003 08:10:15 4 C 4.77 g/m*3 4 C 0 km/h
603 20-03-2003 08:22:15 4.1 C 4.74 g/m*3 4.1 C 0 km/h
604 20-03-2003 08:34:14 4.2 C 4.7 g/m*3 4.2 C 0 km/h
605 20-03-2003 08:46:14 4.1 C 4.67 g/m*3 4.1 C 0 km/h
606 20-03-2003 08:58:14 4 C 4.64 g/m*3 4 C 0 km/h
607 20-03-2003 09:10:15 4.1 C 4.61 g/m*3 4.1 C 0 km/h
608 20-03-2003 09:22:15 4.1 C 4.61 g/m*3 4.1 C 0 km/h
609 20-03-2003 09:34:14 4.1 C 4.61 g/m*3 4.1 C 0 km/h
610 20-03-2003 09:46:14 4.2 C 4.64 g/m*3 4.2 C 0 km/h
611 20-03-2003 09:58:14 4.5 C 4.6 g/m*3 4.5 C 0 km/h
612 20-03-2003 10:10:14 4.4 C 4.57 g/m*3 4.4 C 0 km/h
613 20-03-2003 10:22:14 4.6 C 4.5 g/m*3 4.6 C 0 km/h
614 20-03-2003 10:34:15 4.9 C 4.46 g/m*3 4.9 C 0 km/h
615 20-03-2003 10:46:15 5.3 C 4.44 g/m*3 5.3 C 0 km/h
616 20-03-2003 10:58:15 5.9 C 4.47 g/m*3 5.9 C 0 km/h
617 20-03-2003 11:10:14 5.7 C 4.34 g/m*3 5.7 C 0 km/h
618 20-03-2003 11:22:14 5.6 C 4.38 g/m*3 5.6 C 0 km/h
619 20-03-2003 11:34:14 6.5 C 4.27 g/m*3 6.5 C 0 km/h
620 20-03-2003 11:46:14 5.9 C 4.25 g/m*3 5.9 C 0 km/h
621 20-03-2003 11:58:14 6.1 C 4.24 g/m*3 6.1 C 0 km/h
622 20-03-2003 12:10:14 6.3 C 4.22 g/m*3 6.3 C 0 km/h
623 20-03-2003 12:22:14 7.5 C 4.16 g/m*3 7.5 C 0 km/h
624 20-03-2003 12:34:14 7.3 C 4.03 g/m*3 7.3 C 0 km/h
625 20-03-2003 12:46:14 7.8 C 4.24 g/m*3 7.8 C 0 km/h
Sensor: Nr:Datum:Temp:Abs-Feuchte:Windchill:Wind:
Aussen-T/F 626 20-03-2003 12:58:14 7.9 C 4.27 g/m*3 7.9 C 0 km/h
627 20-03-2003 13:10:14 8.1 C 4.24 g/m*3 8.1 C 0 km/h
628 20-03-2003 13:22:14 8.8 C 4.35 g/m*3 8.8 C 0 km/h
629 20-03-2003 13:34:14 8.7 C 4.41 g/m*3 8.7 C 0 km/h
630 20-03-2003 13:46:14 9.7 C 4.61 g/m*3 9.7 C 0 km/h
631 20-03-2003 13:58:14 9.9 C 4.39 g/m*3 9.9 C 0 km/h
632 20-03-2003 14:10:14 10.2 C 4.28 g/m*3 10.2 C 0 km/h
633 20-03-2003 14:22:14 11.4 C 4.52 g/m*3 11.4 C 0 km/h
634 20-03-2003 14:34:14 12 C 4.37 g/m*3 12 C 0 km/h
635 20-03-2003 14:46:14 12.3 C 4.34 g/m*3 12.3 C 0 km/h
636 20-03-2003 14:58:14 13 C 4.42 g/m*3 13 C 0 km/h
637 20-03-2003 15:10:14 13.5 C 4.33 g/m*3 13.5 C 0 km/h
638 20-03-2003 15:22:14 12.4 C 4.15 g/m*3 12.4 C 0 km/h
639 20-03-2003 15:34:14 12.4 C 4.15 g/m*3 12.4 C 0 km/h
640 20-03-2003 15:46:14 12.5 C 4.18 g/m*3 12.5 C 0 km/h
641 20-03-2003 15:58:14 12.3 C 4.02 g/m*3 12.3 C 0 km/h
642 20-03-2003 16:10:14 12.6 C 3.76 g/m*3 12.6 C 0 km/h
643 20-03-2003 16:22:14 12.4 C 3.93 g/m*3 12.4 C 0 km/h
644 20-03-2003 16:34:15 11.6 C 3.74 g/m*3 11.6 C 0 km/h
645 20-03-2003 16:46:15 10.8 C 4.05 g/m*3 10.8 C 0 km/h
646 20-03-2003 16:58:15 11.6 C 4.26 g/m*3 11.6 C 0 km/h
647 20-03-2003 17:10:26 11 C 4.2 g/m*3 11 C 0 km/h
648 20-03-2003 17:22:13 10.5 C 4.07 g/m*3 10.5 C 0 km/h
649 20-03-2003 17:34:13 10 C 4.13 g/m*3 10 C 0 km/h
650 20-03-2003 17:46:13 9.4 C 4.25 g/m*3 9.4 C 0 km/h
Sensor: Nr:Datum:Temp:Abs-Feuchte:Windchill:Wind:
Aussen-T/F 651 20-03-2003 17:58:13 9.1 C 4.26 g/m*3 9.1 C 0 km/h
652 20-03-2003 18:10:14 8.5 C 4.27 g/m*3 8.5 C 0 km/h
653 20-03-2003 18:22:14 7.9 C 4.35 g/m*3 7.9 C 0 km/h
654 20-03-2003 18:34:14 7.6 C 4.43 g/m*3 7.6 C 0 km/h
655 20-03-2003 18:46:14 7.2 C 4.47 g/m*3 7.2 C 0 km/h
656 20-03-2003 18:58:14 6.8 C 4.51 g/m*3 6.8 C 0 km/h
657 20-03-2003 19:10:14 6.6 C 4.53 g/m*3 6.6 C 0 km/h
658 20-03-2003 19:22:14 6.1 C 4.53 g/m*3 6.1 C 0 km/h
659 20-03-2003 19:34:13 6.1 C 4.53 g/m*3 6.1 C 0 km/h
660 20-03-2003 19:46:13 5.8 C 4.58 g/m*3 5.8 C 0 km/h
661 20-03-2003 19:58:13 5.5 C 4.57 g/m*3 5.5 C 0 km/h
662 20-03-2003 20:10:14 5.4 C 4.6 g/m*3 5.4 C 0 km/h
663 20-03-2003 20:22:14 5.5 C 4.71 g/m*3 5.5 C 0 km/h
664 20-03-2003 20:34:14 5.4 C 4.67 g/m*3 5.4 C 0 km/h
665 20-03-2003 20:46:14 5.3 C 4.71 g/m*3 5.3 C 0 km/h
666 20-03-2003 20:58:14 5.2 C 4.68 g/m*3 5.2 C 0 km/h
667 20-03-2003 21:10:13 4.9 C 4.73 g/m*3 4.9 C 0 km/h
668 20-03-2003 21:22:13 4.7 C 4.73 g/m*3 4.7 C 0 km/h
669 20-03-2003 21:34:14 4.4 C 4.7 g/m*3 4.4 C 0 km/h
670 20-03-2003 21:46:14 4.3 C 4.74 g/m*3 4.3 C 0 km/h
671 20-03-2003 21:58:14 3.9 C 4.74 g/m*3 3.9 C 0 km/h
672 20-03-2003 22:10:14 3.7 C 4.74 g/m*3 3.7 C 0 km/h
673 20-03-2003 22:22:14 3.5 C 4.67 g/m*3 3.5 C 0 km/h
674 20-03-2003 22:35:15 3.3 C 4.73 g/m*3 3.3 C 0 km/h
675 20-03-2003 22:47:15 3.2 C 4.7 g/m*3 3.2 C 0 km/h
Sensor: Nr:Datum:Temp:Abs-Feuchte:Windchill:Wind:
Aussen-T/F 676 20-03-2003 22:59:15 2.9 C 4.67 g/m*3 2.9 C 0 km/h
677 20-03-2003 23:11:15 2.5 C 4.54 g/m*3 2.5 C 0 km/h
678 20-03-2003 23:23:15 2.2 C 4.51 g/m*3 2.2 C 0 km/h
679 20-03-2003 23:35:15 2 C 4.5 g/m*3 2 C 0 km/h
680 20-03-2003 23:47:15 2 C 4.5 g/m*3 2 C 0 km/h
681 20-03-2003 23:59:15 2.2 C 4.34 g/m*3 2.2 C 0 km/h
682 21-03-2003 00:11:15 2.1 C 4.2 g/m*3 2.1 C 0 km/h
683 21-03-2003 00:23:15 2.2 C 4.11 g/m*3 2.2 C 0 km/h
684 21-03-2003 00:35:15 2.1 C 4.08 g/m*3 2.1 C 0 km/h
685 21-03-2003 00:47:15 2 C 4 g/m*3 2 C 0 km/h
686 21-03-2003 00:59:15 1.6 C 4.06 g/m*3 1.6 C 0 km/h
687 21-03-2003 01:11:15 1.2 C 4.05 g/m*3 1.2 C 0 km/h
688 21-03-2003 01:23:15 0.9 C 4.07 g/m*3 0.9 C 0 km/h
689 21-03-2003 01:35:15 0.7 C 4.02 g/m*3 0.7 C 0 km/h
690 21-03-2003 01:47:15 0.6 C 4.04 g/m*3 0.6 C 0 km/h
691 21-03-2003 01:59:15 0.5 C 4.01 g/m*3 0.5 C 0 km/h
692 21-03-2003 02:11:15 0.6 C 4.09 g/m*3 0.6 C 0 km/h
693 21-03-2003 02:23:15 0.3 C 4.01 g/m*3 0.3 C 0 km/h
694 21-03-2003 02:35:15 0.1 C 3.95 g/m*3 0.1 C 0 km/h
695 21-03-2003 02:47:15 0.1 C 3.95 g/m*3 0.1 C 0 km/h
696 21-03-2003 02:59:15 0.1 C 4 g/m*3 0.1 C 0 km/h
697 21-03-2003 03:11:15 0.1 C 4 g/m*3 0.1 C 0 km/h
698 21-03-2003 03:23:15 0 C 3.97 g/m*3 0 C 0 km/h
699 21-03-2003 03:35:15 -0.2 C 3.97 g/m*3 -0.2 C 0 km/h
700 21-03-2003 03:47:15 0.1 C 4.05 g/m*3 0.1 C 0 km/h
Sensor: Nr:Datum:Temp:Abs-Feuchte:Windchill:Wind:
Aussen-T/F 701 21-03-2003 03:59:15 0.1 C 4.05 g/m*3 0.1 C 0 km/h
702 21-03-2003 04:11:15 0.3 C 4.06 g/m*3 0.3 C 0 km/h
703 21-03-2003 04:23:15 0.5 C 4.06 g/m*3 0.5 C 0 km/h
704 21-03-2003 04:35:15 0.6 C 4.04 g/m*3 0.6 C 0 km/h
705 21-03-2003 04:47:15 0.7 C 4.02 g/m*3 0.7 C 0 km/h
706 21-03-2003 04:59:15 0.8 C 3.99 g/m*3 0.8 C 0 km/h
707 21-03-2003 05:11:15 0.8 C 3.99 g/m*3 0.8 C 0 km/h
708 21-03-2003 05:23:15 0.8 C 3.99 g/m*3 0.8 C 0 km/h
709 21-03-2003 05:35:15 0.7 C 3.97 g/m*3 0.7 C 0 km/h
710 21-03-2003 05:47:15 0.7 C 4.02 g/m*3 0.7 C 0 km/h
711 21-03-2003 05:59:15 0.8 C 3.99 g/m*3 0.8 C 0 km/h
712 21-03-2003 06:11:15 0.7 C 3.97 g/m*3 0.7 C 0 km/h
713 21-03-2003 06:23:15 0.5 C 3.91 g/m*3 0.5 C 0 km/h
714 21-03-2003 06:35:15 0.7 C 4.02 g/m*3 0.7 C 0 km/h
715 21-03-2003 06:47:15 0.9 C 4.02 g/m*3 0.9 C 0 km/h
716 21-03-2003 06:59:15 0.9 C 4.02 g/m*3 0.9 C 0 km/h
717 21-03-2003 07:11:15 1 C 4 g/m*3 1 C 0 km/h
718 21-03-2003 07:23:15 1.1 C 4.02 g/m*3 1.1 C 0 km/h
719 21-03-2003 07:35:15 1.2 C 4 g/m*3 1.2 C 0 km/h
720 21-03-2003 07:47:15 1.3 C 4.03 g/m*3 1.3 C 0 km/h
721 21-03-2003 07:59:15 1.5 C 4.03 g/m*3 1.5 C 0 km/h
722 21-03-2003 08:11:14 1.5 C 4.03 g/m*3 1.5 C 0 km/h
723 21-03-2003 08:23:14 1.9 C 4.03 g/m*3 1.9 C 0 km/h
724 21-03-2003 08:35:14 2 C 3.95 g/m*3 2 C 0 km/h
725 21-03-2003 08:47:14 2.3 C 3.97 g/m*3 2.3 C 0 km/h
Sensor: Nr:Datum:Temp:Abs-Feuchte:Windchill:Wind:
Aussen-T/F 726 21-03-2003 08:59:14 2.4 C 3.94 g/m*3 2.4 C 0 km/h
727 21-03-2003 09:11:14 2.2 C 3.94 g/m*3 2.2 C 0 km/h
728 21-03-2003 09:23:14 2.4 C 3.94 g/m*3 2.4 C 0 km/h
729 21-03-2003 09:35:15 3.1 C 3.95 g/m*3 3.1 C 0 km/h
730 21-03-2003 09:47:15 3.7 C 4.05 g/m*3 3.7 C 0 km/h
731 21-03-2003 09:59:15 4.5 C 4.01 g/m*3 4.5 C 0 km/h
732 21-03-2003 10:11:14 4.7 C 3.93 g/m*3 4.7 C 0 km/h
733 21-03-2003 10:23:14 5.2 C 3.86 g/m*3 5.2 C 0 km/h
734 21-03-2003 10:35:14 5.4 C 3.77 g/m*3 5.4 C 0 km/h
735 21-03-2003 10:47:14 5.7 C 3.84 g/m*3 5.7 C 0 km/h
736 21-03-2003 10:59:14 6.5 C 3.75 g/m*3 6.5 C 0 km/h
737 21-03-2003 11:11:15 6.9 C 3.7 g/m*3 6.9 C 0 km/h
738 21-03-2003 11:23:15 7.4 C 3.66 g/m*3 7.4 C 0 km/h
739 21-03-2003 11:47:14 8.2 C 3.68 g/m*3 8.2 C 0 km/h
740 21-03-2003 11:59:14 8.5 C 3.59 g/m*3 8.5 C 0 km/h
741 21-03-2003 12:11:14 9.4 C 3.71 g/m*3 9.4 C 0 km/h
742 21-03-2003 12:23:14 10.2 C 3.81 g/m*3 10.2 C 0 km/h
743 21-03-2003 12:35:14 10 C 3.48 g/m*3 10 C 0 km/h
744 21-03-2003 12:47:14 10.4 C 3.57 g/m*3 10.4 C 0 km/h
745 21-03-2003 12:59:14 10.4 C 3.66 g/m*3 10.4 C 0 km/h
746 21-03-2003 13:11:14 10.6 C 3.71 g/m*3 10.6 C 0 km/h
747 21-03-2003 13:23:14 11 C 3.7 g/m*3 11 C 0 km/h
748 21-03-2003 13:35:13 11.2 C 3.65 g/m*3 11.2 C 0 km/h
749 21-03-2003 13:47:13 11.9 C 3.81 g/m*3 11.9 C 0 km/h
750 21-03-2003 13:59:13 12.3 C 3.69 g/m*3 12.3 C 0 km/h
Sensor: Nr:Datum:Temp:Abs-Feuchte:Windchill:Wind:
Aussen-T/F 751 21-03-2003 14:11:14 12.2 C 3.45 g/m*3 12.2 C 0 km/h
752 21-03-2003 14:23:14 12.8 C 3.7 g/m*3 12.8 C 0 km/h
753 21-03-2003 14:35:15 13.1 C 3.65 g/m*3 13.1 C 0 km/h
754 21-03-2003 14:47:15 13.3 C 3.58 g/m*3 13.3 C 0 km/h
755 21-03-2003 14:59:15 13.2 C 3.56 g/m*3 13.2 C 0 km/h
756 21-03-2003 15:11:14 13.5 C 3.51 g/m*3 13.5 C 0 km/h
757 21-03-2003 15:23:14 13.5 C 3.51 g/m*3 13.5 C 0 km/h
758 21-03-2003 15:35:15 13.4 C 3.49 g/m*3 13.4 C 0 km/h
759 21-03-2003 15:47:15 14 C 3.62 g/m*3 14 C 0 km/h
760 21-03-2003 15:59:15 13.6 C 3.53 g/m*3 13.6 C 0 km/h
761 21-03-2003 16:11:14 13.1 C 3.42 g/m*3 13.1 C 0 km/h
762 21-03-2003 16:23:14 13.4 C 3.6 g/m*3 13.4 C 0 km/h
763 21-03-2003 16:35:13 13.7 C 3.55 g/m*3 13.7 C 0 km/h
764 21-03-2003 16:47:13 13.2 C 3.44 g/m*3 13.2 C 0 km/h
765 21-03-2003 16:59:13 13 C 3.63 g/m*3 13 C 0 km/h
766 21-03-2003 17:11:14 12.7 C 3.67 g/m*3 12.7 C 0 km/h
767 21-03-2003 17:23:14 12.5 C 3.63 g/m*3 12.5 C 0 km/h
768 21-03-2003 17:35:13 12.4 C 3.5 g/m*3 12.4 C 0 km/h
769 21-03-2003 17:47:13 11.6 C 3.53 g/m*3 11.6 C 0 km/h
770 21-03-2003 17:59:13 11.1 C 3.53 g/m*3 11.1 C 0 km/h
771 21-03-2003 18:11:14 10.5 C 3.49 g/m*3 10.5 C 0 km/h
772 21-03-2003 18:23:14 10.1 C 3.69 g/m*3 10.1 C 0 km/h
773 21-03-2003 18:35:14 9.3 C 3.68 g/m*3 9.3 C 0 km/h
774 21-03-2003 18:47:14 8.2 C 3.68 g/m*3 8.2 C 0 km/h
775 21-03-2003 18:59:14 7.5 C 3.68 g/m*3 7.5 C 0 km/h
Sensor: Nr:Datum:Temp:Abs-Feuchte:Windchill:Wind:
Aussen-T/F 776 21-03-2003 19:11:13 6.9 C 3.77 g/m*3 6.9 C 0 km/h
777 21-03-2003 19:23:13 6.5 C 3.75 g/m*3 6.5 C 0 km/h
778 21-03-2003 19:35:13 6.3 C 3.7 g/m*3 6.3 C 0 km/h
779 21-03-2003 19:47:13 5.9 C 3.75 g/m*3 5.9 C 0 km/h
780 21-03-2003 19:59:13 5.7 C 3.84 g/m*3 5.7 C 0 km/h
781 21-03-2003 20:11:14 5.2 C 3.79 g/m*3 5.2 C 0 km/h
782 21-03-2003 20:23:14 5.1 C 3.83 g/m*3 5.1 C 0 km/h
783 21-03-2003 20:35:13 4.8 C 3.89 g/m*3 4.8 C 0 km/h
784 21-03-2003 20:47:13 4.6 C 3.9 g/m*3 4.6 C 0 km/h
785 21-03-2003 20:59:13 4.3 C 3.89 g/m*3 4.3 C 0 km/h
786 21-03-2003 21:11:14 4 C 3.88 g/m*3 4 C 0 km/h
787 21-03-2003 21:23:14 4 C 3.94 g/m*3 4 C 0 km/h
788 21-03-2003 21:35:14 3.7 C 3.86 g/m*3 3.7 C 0 km/h
789 21-03-2003 21:47:14 3.7 C 3.93 g/m*3 3.7 C 0 km/h
790 21-03-2003 21:59:14 3.7 C 3.93 g/m*3 3.7 C 0 km/h
791 21-03-2003 22:12:14 3.2 C 3.92 g/m*3 3.2 C 0 km/h
792 21-03-2003 22:24:14 3 C 3.92 g/m*3 3 C 0 km/h
793 21-03-2003 22:36:14 3 C 3.86 g/m*3 3 C 0 km/h
794 21-03-2003 22:48:14 3.1 C 3.89 g/m*3 3.1 C 0 km/h
795 21-03-2003 23:00:14 3.1 C 3.89 g/m*3 3.1 C 0 km/h
796 21-03-2003 23:12:14 2.4 C 3.88 g/m*3 2.4 C 0 km/h
797 21-03-2003 23:24:14 2.2 C 4 g/m*3 2.2 C 0 km/h
798 21-03-2003 23:36:14 2 C 3.89 g/m*3 2 C 0 km/h
799 21-03-2003 23:48:14 2 C 3.89 g/m*3 2 C 0 km/h
800 22-03-2003 00:00:14 1.8 C 3.84 g/m*3 1.8 C 0 km/h
Sensor: Nr:Datum:Temp:Abs-Feuchte:Windchill:Wind:
Aussen-T/F 801 22-03-2003 00:12:14 1.6 C 3.79 g/m*3 1.6 C 0 km/h
802 22-03-2003 00:24:14 1.6 C 3.73 g/m*3 1.6 C 0 km/h
803 22-03-2003 00:36:14 1.7 C 3.7 g/m*3 1.7 C 0 km/h
804 22-03-2003 00:48:14 1.5 C 3.65 g/m*3 1.5 C 0 km/h
805 22-03-2003 01:00:14 1.5 C 3.65 g/m*3 1.5 C 0 km/h
806 22-03-2003 01:12:14 1.5 C 3.6 g/m*3 1.5 C 0 km/h
807 22-03-2003 01:24:14 1.2 C 3.53 g/m*3 1.2 C 0 km/h
808 22-03-2003 01:36:14 1.1 C 3.45 g/m*3 1.1 C 0 km/h
809 22-03-2003 01:48:14 1 C 3.48 g/m*3 1 C 0 km/h
810 22-03-2003 02:00:14 0.8 C 3.53 g/m*3 0.8 C 0 km/h
811 22-03-2003 02:12:14 0.6 C 3.43 g/m*3 0.6 C 0 km/h
812 22-03-2003 02:24:14 0.6 C 3.38 g/m*3 0.6 C 0 km/h
813 22-03-2003 02:36:14 0.3 C 3.36 g/m*3 0.3 C 0 km/h
814 22-03-2003 02:48:14 0.4 C 3.39 g/m*3 0.4 C 0 km/h
815 22-03-2003 03:00:14 0.1 C 3.27 g/m*3 0.1 C 0 km/h
816 22-03-2003 03:12:14 0.1 C 3.32 g/m*3 0.1 C 0 km/h
817 22-03-2003 03:24:14 0 C 3.25 g/m*3 0 C 0 km/h
818 22-03-2003 03:36:14 -0.2 C 3.2 g/m*3 -0.2 C 0 km/h
819 22-03-2003 03:48:14 -0.4 C 3.16 g/m*3 -0.4 C 0 km/h
820 22-03-2003 04:00:14 -0.6 C 3.16 g/m*3 -0.6 C 0 km/h
821 22-03-2003 04:12:14 -0.8 C 3.07 g/m*3 -0.8 C 0 km/h
822 22-03-2003 04:24:14 -0.8 C 3.12 g/m*3 -0.8 C 0 km/h
823 22-03-2003 04:36:14 -1 C 3.12 g/m*3 -1 C 0 km/h
824 22-03-2003 04:48:14 -1.1 C 3.14 g/m*3 -1.1 C 0 km/h
825 22-03-2003 05:00:14 -1.3 C 3.14 g/m*3 -1.3 C 0 km/h
Sensor: Nr:Datum:Temp:Abs-Feuchte:Windchill:Wind:
Aussen-T/F 826 22-03-2003 05:12:14 -1.4 C 3.08 g/m*3 -1.4 C 0 km/h
827 22-03-2003 05:24:14 -1.4 C 3.08 g/m*3 -1.4 C 0 km/h
828 22-03-2003 05:36:14 -1.5 C 3.06 g/m*3 -1.5 C 0 km/h
829 22-03-2003 05:48:14 -1.7 C 3.06 g/m*3 -1.7 C 0 km/h
830 22-03-2003 06:00:14 -1.8 C 3.04 g/m*3 -1.8 C 0 km/h
831 22-03-2003 06:12:14 -2 C 3.03 g/m*3 -2 C 0 km/h
832 22-03-2003 06:24:14 -2.1 C 3.01 g/m*3 -2.1 C 0 km/h
833 22-03-2003 06:36:14 -2 C 3.03 g/m*3 -2 C 0 km/h
834 22-03-2003 06:48:14 -2 C 3.03 g/m*3 -2 C 0 km/h
835 22-03-2003 07:00:14 -2 C 2.99 g/m*3 -2 C 0 km/h
836 22-03-2003 07:12:14 -1.9 C 2.97 g/m*3 -1.9 C 0 km/h
837 22-03-2003 07:24:14 -1.9 C 2.97 g/m*3 -1.9 C 0 km/h
838 22-03-2003 07:36:15 -1.8 C 2.95 g/m*3 -1.8 C 0 km/h
839 22-03-2003 07:48:15 -1.5 C 2.97 g/m*3 -1.5 C 0 km/h
840 22-03-2003 08:00:15 -1.4 C 2.99 g/m*3 -1.4 C 0 km/h
841 22-03-2003 08:12:15 -1.2 C 2.99 g/m*3 -1.2 C 0 km/h
842 22-03-2003 08:24:15 -1 C 2.98 g/m*3 -1 C 0 km/h
843 22-03-2003 08:36:15 -0.9 C 2.96 g/m*3 -0.9 C 0 km/h
844 22-03-2003 08:48:15 -0.4 C 2.92 g/m*3 -0.4 C 0 km/h
845 22-03-2003 09:00:15 0.3 C 2.97 g/m*3 0.3 C 0 km/h
846 22-03-2003 09:12:15 1.5 C 2.79 g/m*3 1.5 C 0 km/h
847 22-03-2003 09:24:15 2.3 C 2.78 g/m*3 2.3 C 0 km/h
848 22-03-2003 09:36:14 2.5 C 2.87 g/m*3 2.5 C 0 km/h
849 22-03-2003 09:48:14 3.2 C 2.89 g/m*3 3.2 C 0 km/h
850 22-03-2003 10:00:14 4 C 2.86 g/m*3 4 C 0 km/h
Sensor: Nr:Datum:Temp:Abs-Feuchte:Windchill:Wind:
Aussen-T/F 851 22-03-2003 10:12:15 4.7 C 2.66 g/m*3 4.7 C 0 km/h
852 22-03-2003 10:24:15 5.4 C 2.58 g/m*3 5.4 C 0 km/h
853 22-03-2003 10:36:15 5.8 C 2.51 g/m*3 5.8 C 0 km/h
854 22-03-2003 10:48:15 6.4 C 2.38 g/m*3 6.4 C 0 km/h
855 22-03-2003 11:00:15 7.3 C 2.37 g/m*3 7.3 C 0 km/h
856 22-03-2003 11:12:18 8 C 2.4 g/m*3 8 C 0 km/h
857 22-03-2003 11:24:18 8.4 C 1.78 g/m*3 8.4 C 0 km/h
858 22-03-2003 11:36:19 9.3 C 1.8 g/m*3 9.3 C 0 km/h
859 22-03-2003 11:48:19 10 C 1.88 g/m*3 10 C 0 km/h
860 22-03-2003 12:00:19 10.7 C 1.96 g/m*3 10.7 C 0 km/h
861 22-03-2003 12:12:18 11.6 C 2.08 g/m*3 11.6 C 0 km/h
862 22-03-2003 12:24:18 12 C 2.13 g/m*3 12 C 0 km/h
863 22-03-2003 12:36:19 12.5 C 2.2 g/m*3 12.5 C 0 km/h
864 22-03-2003 12:48:19 12.5 C 2.2 g/m*3 12.5 C 0 km/h
865 22-03-2003 13:00:19 12.7 C 2.23 g/m*3 12.7 C 0 km/h
866 22-03-2003 13:12:18 12.7 C 2.23 g/m*3 12.7 C 0 km/h
867 22-03-2003 13:24:18 12.7 C 2.23 g/m*3 12.7 C 0 km/h
868 22-03-2003 13:36:17 13.4 C 2.32 g/m*3 13.4 C 0 km/h
869 22-03-2003 13:48:17 13.8 C 2.38 g/m*3 13.8 C 0 km/h
870 22-03-2003 14:00:17 14.3 C 2.46 g/m*3 14.3 C 0 km/h
871 22-03-2003 14:12:18 14.6 C 2.5 g/m*3 14.6 C 0 km/h
872 22-03-2003 14:24:18 15.5 C 2.64 g/m*3 15.5 C 0 km/h
873 22-03-2003 14:36:18 15.7 C 2.68 g/m*3 15.7 C 0 km/h
874 22-03-2003 14:48:18 16.5 C 2.81 g/m*3 16.5 C 0 km/h
875 22-03-2003 15:00:18 17 C 2.89 g/m*3 17 C 0 km/h
Sensor: Nr:Datum:Temp:Abs-Feuchte:Windchill:Wind:
Aussen-T/F 876 22-03-2003 15:12:18 17 C 2.89 g/m*3 17 C 0 km/h
877 22-03-2003 15:24:18 17.7 C 3.02 g/m*3 17.7 C 0 km/h
878 22-03-2003 15:36:17 18 C 3.07 g/m*3 18 C 0 km/h
879 22-03-2003 15:48:17 18.3 C 3.13 g/m*3 18.3 C 0 km/h
880 22-03-2003 16:00:17 17.8 C 3.04 g/m*3 17.8 C 0 km/h
881 22-03-2003 16:12:17 17.8 C 3.04 g/m*3 17.8 C 0 km/h
882 22-03-2003 16:24:17 17.6 C 3 g/m*3 17.6 C 0 km/h
883 22-03-2003 16:36:18 16.9 C 2.88 g/m*3 16.9 C 0 km/h
884 22-03-2003 16:48:18 17.2 C 2.93 g/m*3 17.2 C 0 km/h
885 22-03-2003 17:00:18 17.2 C 2.93 g/m*3 17.2 C 0 km/h
886 22-03-2003 17:12:18 17 C 2.89 g/m*3 17 C 0 km/h
887 22-03-2003 17:24:18 16.4 C 2.79 g/m*3 16.4 C 0 km/h
888 22-03-2003 17:36:18 16.7 C 2.84 g/m*3 16.7 C 0 km/h
889 22-03-2003 17:48:18 16.3 C 2.77 g/m*3 16.3 C 0 km/h
890 22-03-2003 18:00:18 15.6 C 2.66 g/m*3 15.6 C 0 km/h
891 22-03-2003 18:12:18 14.7 C 2.52 g/m*3 14.7 C 0 km/h
892 22-03-2003 18:24:18 13.9 C 2.4 g/m*3 13.9 C 0 km/h
893 22-03-2003 18:36:18 12.6 C 2.21 g/m*3 12.6 C 0 km/h
894 22-03-2003 18:48:18 11.1 C 2.01 g/m*3 11.1 C 0 km/h
895 22-03-2003 19:00:18 10.2 C 1.9 g/m*3 10.2 C 0 km/h
896 22-03-2003 19:12:17 9.4 C 1.81 g/m*3 9.4 C 0 km/h
897 22-03-2003 19:24:17 9.1 C 1.77 g/m*3 9.1 C 0 km/h
898 22-03-2003 19:36:17 9.1 C 1.77 g/m*3 9.1 C 0 km/h
899 22-03-2003 19:48:17 9.1 C 1.77 g/m*3 9.1 C 0 km/h
900 22-03-2003 20:00:17 9.1 C 1.77 g/m*3 9.1 C 0 km/h
Sensor: Nr:Datum:Temp:Abs-Feuchte:Windchill:Wind:
Aussen-T/F 901 22-03-2003 20:12:17 9.1 C 1.77 g/m*3 9.1 C 0 km/h
902 22-03-2003 20:24:17 9.1 C 1.77 g/m*3 9.1 C 0 km/h
903 22-03-2003 20:36:17 9.1 C 1.77 g/m*3 9.1 C 0 km/h
904 22-03-2003 20:48:17 9.1 C 1.77 g/m*3 9.1 C 0 km/h
905 22-03-2003 21:00:17 9.1 C 1.77 g/m*3 9.1 C 0 km/h
906 22-03-2003 21:13:15 9.1 C 1.77 g/m*3 9.1 C 0 km/h
907 22-03-2003 21:25:15 6.5 C 2.02 g/m*3 6.5 C 0 km/h
908 22-03-2003 21:37:15 6.4 C 2.01 g/m*3 6.4 C 0 km/h
909 22-03-2003 21:49:15 6.3 C 2 g/m*3 6.3 C 0 km/h
910 22-03-2003 22:01:15 6.3 C 2 g/m*3 6.3 C 0 km/h
911 22-03-2003 22:13:15 6.3 C 2 g/m*3 6.3 C 0 km/h
912 22-03-2003 22:25:15 6.3 C 2 g/m*3 6.3 C 0 km/h
913 22-03-2003 22:37:15 6.3 C 2 g/m*3 6.3 C 0 km/h
914 22-03-2003 22:49:15 6.3 C 2 g/m*3 6.3 C 0 km/h
915 22-03-2003 23:01:15 6.3 C 2 g/m*3 6.3 C 0 km/h
916 22-03-2003 23:13:15 6.3 C 2 g/m*3 6.3 C 0 km/h
917 22-03-2003 23:25:15 6.3 C 2 g/m*3 6.3 C 0 km/h
918 22-03-2003 23:37:15 6.3 C 2 g/m*3 6.3 C 0 km/h
919 22-03-2003 23:49:15 6.3 C 2 g/m*3 6.3 C 0 km/h
920 23-03-2003 00:01:15 6.3 C 2 g/m*3 6.3 C 0 km/h
921 23-03-2003 00:13:15 6.3 C 2 g/m*3 6.3 C 0 km/h
922 23-03-2003 00:25:15 6.3 C 2 g/m*3 6.3 C 0 km/h
923 23-03-2003 00:37:15 6.3 C 2 g/m*3 6.3 C 0 km/h
924 23-03-2003 00:49:15 2.5 C 2.59 g/m*3 2.5 C 0 km/h
925 23-03-2003 01:01:15 2.5 C 2.41 g/m*3 2.5 C 0 km/h
Sensor: Nr:Datum:Temp:Abs-Feuchte:Windchill:Wind:
Aussen-T/F 926 23-03-2003 01:13:15 2.1 C 2.52 g/m*3 2.1 C 0 km/h
927 23-03-2003 01:25:15 1.9 C 2.48 g/m*3 1.9 C 0 km/h
928 23-03-2003 01:37:15 1.6 C 2.6 g/m*3 1.6 C 0 km/h
929 23-03-2003 01:49:15 1.4 C 2.45 g/m*3 1.4 C 0 km/h
930 23-03-2003 02:01:15 1.4 C 2.51 g/m*3 1.4 C 0 km/h
931 23-03-2003 02:13:15 1 C 2.6 g/m*3 1 C 0 km/h
932 23-03-2003 02:25:15 0.8 C 2.61 g/m*3 0.8 C 0 km/h
933 23-03-2003 02:37:15 0.7 C 2.49 g/m*3 0.7 C 0 km/h
934 23-03-2003 02:49:15 0.6 C 2.63 g/m*3 0.6 C 0 km/h
935 23-03-2003 03:01:15 0.6 C 2.52 g/m*3 0.6 C 0 km/h
936 23-03-2003 03:13:15 0.5 C 2.51 g/m*3 0.5 C 0 km/h
937 23-03-2003 03:25:15 0.3 C 2.52 g/m*3 0.3 C 0 km/h
938 23-03-2003 03:37:15 0 C 2.57 g/m*3 0 C 0 km/h
939 23-03-2003 03:49:15 -0.3 C 2.52 g/m*3 -0.3 C 0 km/h
940 23-03-2003 04:01:15 -0.3 C 2.56 g/m*3 -0.3 C 0 km/h
941 23-03-2003 04:13:15 -0.6 C 2.56 g/m*3 -0.6 C 0 km/h
942 23-03-2003 04:25:15 -0.6 C 2.6 g/m*3 -0.6 C 0 km/h
943 23-03-2003 04:37:15 -0.7 C 2.58 g/m*3 -0.7 C 0 km/h
944 23-03-2003 04:49:15 -0.8 C 2.7 g/m*3 -0.8 C 0 km/h
945 23-03-2003 05:01:15 -0.9 C 2.64 g/m*3 -0.9 C 0 km/h
946 23-03-2003 05:13:15 -1 C 2.71 g/m*3 -1 C 0 km/h
947 23-03-2003 05:25:15 -1.1 C 2.74 g/m*3 -1.1 C 0 km/h
948 23-03-2003 05:37:15 -1.3 C 2.74 g/m*3 -1.3 C 0 km/h
949 23-03-2003 05:49:15 -1.4 C 2.77 g/m*3 -1.4 C 0 km/h
950 23-03-2003 06:01:15 -1.5 C 2.75 g/m*3 -1.5 C 0 km/h
Sensor: Nr:Datum:Temp:Abs-Feuchte:Windchill:Wind:
Aussen-T/F 951 23-03-2003 06:13:15 -1.6 C 2.73 g/m*3 -1.6 C 0 km/h
952 23-03-2003 06:25:15 -1.8 C 2.69 g/m*3 -1.8 C 0 km/h
953 23-03-2003 06:37:15 -1.9 C 2.67 g/m*3 -1.9 C 0 km/h
954 23-03-2003 06:49:15 -1.8 C 2.69 g/m*3 -1.8 C 0 km/h
955 23-03-2003 07:01:15 -2.1 C 2.64 g/m*3 -2.1 C 0 km/h
956 23-03-2003 07:13:15 -2 C 2.74 g/m*3 -2 C 0 km/h
957 23-03-2003 07:25:15 -2 C 2.74 g/m*3 -2 C 0 km/h
958 23-03-2003 07:37:15 -2.1 C 2.64 g/m*3 -2.1 C 0 km/h
959 23-03-2003 07:49:15 -1.8 C 2.65 g/m*3 -1.8 C 0 km/h
960 23-03-2003 08:01:15 -1.8 C 2.69 g/m*3 -1.8 C 0 km/h
961 23-03-2003 08:13:15 -1.8 C 2.65 g/m*3 -1.8 C 0 km/h
962 23-03-2003 08:25:15 -1.6 C 2.69 g/m*3 -1.6 C 0 km/h
963 23-03-2003 08:37:15 -1.2 C 2.72 g/m*3 -1.2 C 0 km/h
964 23-03-2003 08:49:15 -0.8 C 2.8 g/m*3 -0.8 C 0 km/h
965 23-03-2003 09:01:15 0.2 C 2.9 g/m*3 0.2 C 0 km/h
966 23-03-2003 09:13:16 1.4 C 2.99 g/m*3 1.4 C 0 km/h
967 23-03-2003 09:25:16 2.1 C 2.8 g/m*3 2.1 C 0 km/h
968 23-03-2003 09:37:15 3 C 2.79 g/m*3 3 C 0 km/h
969 23-03-2003 09:49:15 3.6 C 2.72 g/m*3 3.6 C 0 km/h
970 23-03-2003 10:01:15 4.9 C 2.7 g/m*3 4.9 C 0 km/h
971 23-03-2003 10:13:15 5.6 C 2.9 g/m*3 5.6 C 0 km/h
972 23-03-2003 10:25:15 6.5 C 2.77 g/m*3 6.5 C 0 km/h
973 23-03-2003 10:37:15 7.6 C 2.74 g/m*3 7.6 C 0 km/h
974 23-03-2003 10:49:15 8.6 C 2.58 g/m*3 8.6 C 0 km/h
975 23-03-2003 11:01:15 9.6 C 2.38 g/m*3 9.6 C 0 km/h
Sensor: Nr:Datum:Temp:Abs-Feuchte:Windchill:Wind:
Aussen-T/F 976 23-03-2003 11:13:15 10.7 C 1.96 g/m*3 10.7 C 0 km/h
977 23-03-2003 11:25:15 10.6 C 1.95 g/m*3 10.6 C 0 km/h
978 23-03-2003 11:37:16 11.4 C 2.05 g/m*3 11.4 C 0 km/h
979 23-03-2003 11:49:16 12.3 C 2.17 g/m*3 12.3 C 0 km/h
980 23-03-2003 12:01:16 13.1 C 2.28 g/m*3 13.1 C 0 km/h
981 23-03-2003 12:13:14 14.1 C 2.43 g/m*3 14.1 C 0 km/h
982 23-03-2003 12:25:14 15.2 C 2.6 g/m*3 15.2 C 0 km/h
983 23-03-2003 12:37:16 15.5 C 2.64 g/m*3 15.5 C 0 km/h
984 23-03-2003 12:49:16 15.6 C 2.66 g/m*3 15.6 C 0 km/h
985 23-03-2003 13:01:16 15.8 C 2.69 g/m*3 15.8 C 0 km/h
986 23-03-2003 13:13:15 15.8 C 2.69 g/m*3 15.8 C 0 km/h
987 23-03-2003 13:25:15 16.2 C 2.76 g/m*3 16.2 C 0 km/h
988 23-03-2003 13:37:15 16.6 C 2.83 g/m*3 16.6 C 0 km/h
989 23-03-2003 13:49:15 17.2 C 2.93 g/m*3 17.2 C 0 km/h
990 23-03-2003 14:01:15 17.5 C 2.98 g/m*3 17.5 C 0 km/h
991 23-03-2003 14:13:15 17.8 C 3.04 g/m*3 17.8 C 0 km/h
992 23-03-2003 14:25:15 18.5 C 3.16 g/m*3 18.5 C 0 km/h
993 23-03-2003 14:37:15 18.4 C 3.15 g/m*3 18.4 C 0 km/h
994 23-03-2003 15:01:15 19.5 C 3.36 g/m*3 19.5 C 0 km/h
995 23-03-2003 15:13:15 20.2 C 3.5 g/m*3 20.2 C 0 km/h
996 23-03-2003 15:25:15 20.8 C 3.62 g/m*3 20.8 C 0 km/h
997 23-03-2003 15:37:15 20.8 C 3.62 g/m*3 20.8 C 0 km/h
998 23-03-2003 15:49:15 21.1 C 3.69 g/m*3 21.1 C 0 km/h
999 23-03-2003 16:01:15 21.3 C 3.73 g/m*3 21.3 C 0 km/h
1000 23-03-2003 16:13:15 21.1 C 3.69 g/m*3 21.1 C 0 km/h
Sensor: Nr:Datum:Temp:Abs-Feuchte:Windchill:Wind:
Aussen-T/F 1001 23-03-2003 16:25:15 20.7 C 3.6 g/m*3 20.7 C 0 km/h
1002 23-03-2003 16:37:15 20.7 C 3.6 g/m*3 20.7 C 0 km/h
1003 23-03-2003 16:49:15 20.8 C 3.62 g/m*3 20.8 C 0 km/h
1004 23-03-2003 17:01:15 20.7 C 3.6 g/m*3 20.7 C 0 km/h
1005 23-03-2003 17:13:15 20.2 C 3.5 g/m*3 20.2 C 0 km/h
1006 23-03-2003 17:25:15 20 C 3.46 g/m*3 20 C 0 km/h
1007 23-03-2003 17:37:15 19.4 C 3.34 g/m*3 19.4 C 0 km/h
1008 23-03-2003 17:49:15 19.2 C 3.3 g/m*3 19.2 C 0 km/h
1009 23-03-2003 18:01:15 18.7 C 3.2 g/m*3 18.7 C 0 km/h
1010 23-03-2003 18:13:15 17.8 C 3.04 g/m*3 17.8 C 0 km/h
1011 23-03-2003 18:25:15 16.4 C 2.79 g/m*3 16.4 C 0 km/h
1012 23-03-2003 18:37:15 15 C 2.56 g/m*3 15 C 0 km/h
1013 23-03-2003 18:49:15 13.8 C 2.38 g/m*3 13.8 C 0 km/h
1014 23-03-2003 19:01:15 13 C 2.27 g/m*3 13 C 0 km/h
1015 23-03-2003 19:13:15 12.1 C 2.14 g/m*3 12.1 C 0 km/h
1016 23-03-2003 19:25:15 11.9 C 2.12 g/m*3 11.9 C 0 km/h
1017 23-03-2003 19:37:14 11.4 C 2.05 g/m*3 11.4 C 0 km/h
1018 23-03-2003 19:49:14 11.6 C 2.08 g/m*3 11.6 C 0 km/h
1019 23-03-2003 20:01:14 10.9 C 1.99 g/m*3 10.9 C 0 km/h
1020 23-03-2003 20:13:15 10.5 C 1.94 g/m*3 10.5 C 0 km/h
1021 23-03-2003 20:25:15 9.9 C 2.43 g/m*3 9.9 C 0 km/h
1022 23-03-2003 20:37:59 9.4 C 2.71 g/m*3 9.4 C 0 km/h
1023 23-03-2003 20:49:59 9 C 2.64 g/m*3 9 C 0 km/h
1024 23-03-2003 21:01:13 8.8 C 2.79 g/m*3 8.8 C 0 km/h
1025 23-03-2003 21:13:14 8.2 C 2.93 g/m*3 8.2 C 0 km/h
Sensor: Nr:Datum:Temp:Abs-Feuchte:Windchill:Wind:
Aussen-T/F 1026 23-03-2003 21:25:14 8 C 2.98 g/m*3 8 C 0 km/h
1027 23-03-2003 21:38:14 7.5 C 2.88 g/m*3 7.5 C 0 km/h
1028 23-03-2003 21:50:14 7.1 C 2.96 g/m*3 7.1 C 0 km/h
1029 23-03-2003 22:02:14 6.5 C 3 g/m*3 6.5 C 0 km/h
1030 23-03-2003 22:14:14 6.3 C 3.11 g/m*3 6.3 C 0 km/h
1031 23-03-2003 22:26:14 6.1 C 3 g/m*3 6.1 C 0 km/h
1032 23-03-2003 22:38:14 5.9 C 3.03 g/m*3 5.9 C 0 km/h
1033 23-03-2003 22:50:14 5.8 C 3.01 g/m*3 5.8 C 0 km/h
1034 23-03-2003 23:02:14 5.6 C 3.04 g/m*3 5.6 C 0 km/h
1035 23-03-2003 23:14:14 5.4 C 3.07 g/m*3 5.4 C 0 km/h
1036 23-03-2003 23:26:14 5 C 3.06 g/m*3 5 C 0 km/h
1037 23-03-2003 23:38:14 4.8 C 3.02 g/m*3 4.8 C 0 km/h
1038 23-03-2003 23:50:14 4.6 C 3.04 g/m*3 4.6 C 0 km/h

Legende:
   Min
   Max


Maximal/Minimal-Werte vom 16.03.2003 - 23.03.2003

Sensor Min Max Avg
Temp
(Aussen-T/F)
-2.1 °C
16-03-2003  06:54:12
21.3 °C
23-03-2003  16:01:15
6.13 °C
Abs-Feuchte
(Aussen-T/F)
1.77 g/m*3
22-03-2003  19:24:17
5.06 g/m*3
19-03-2003  10:33:14
3.72 g/m*3
Windchill
(Aussen-T/F)
-2.1 C
16-03-2003  06:54:12
21.3 C
23-03-2003  16:01:15
6.12 C

Die Daten stammen von einer Davis Vantage Pro 2 Wetter-Station und werden unter Linux mit der Software wview2wettercgi und aufbereitet. Alle Angaben erfolgen ohne Gewähr für ihre Vollständigkeit oder Richtigkeit.
Kontakt: Rainer Krienke krienke@uni-koblenz.de . Meine Webseiten an der Uni Koblenz oder privat.
Version: $Revision: 0.78 $